DAL211 FACT-KATL
Flight info
| Callsign | DAL211 |
|---|---|
| Flight time | N/A |
| Altitude | 32000 |
| Route | IMSOM1B IMSOM UQ36 APKIN UQ15 OKDOG DCT 30S010E/N0495F340 26S005E 22S000W 16S005W 10S010W 05S015W/N0495F360 00N020W DCT BUVUK UL435 BUXON/N0488F380 UL435 BUTUX/M084F380 L435 FIVZE/M084F400 L435 JAINS/N0478F400 AR12 DEDDY DCT HOTHH JJEDI3 |
| Aircraft | B77W/H-SDE1E2E3FGHIJ2J3J4J5M1RWXY/LB1D1 |
Departure
| Time | 2026-05-06 19:04 |
|---|---|
| Airport | Cape Town International Airport (FACT) |
Arrival
| Time | N/A |
|---|---|
| Airport | Hartsfield Jackson Atlanta International Airport (KATL) |
| Time | Latitude | Longitude | Altitude | Speed | Heading |
|---|---|---|---|---|---|
| 2026-05-06 18:47 | -33.96708 | 18.59743 | 159 ft | 0 kts | 255° |
| 2026-05-06 18:54 | -33.96707 | 18.59745 | 159 ft | 2 kts | 255° |
| 2026-05-06 18:55 | -33.96701 | 18.59775 | 159 ft | 4 kts | 255° |
| 2026-05-06 18:55 | -33.96694 | 18.59806 | 159 ft | 4 kts | 255° |
| 2026-05-06 18:55 | -33.96687 | 18.59838 | 159 ft | 4 kts | 255° |
| 2026-05-06 18:55 | -33.96685 | 18.59847 | 159 ft | 0 kts | 255° |
| 2026-05-06 18:59 | -33.96685 | 18.59846 | 159 ft | 1 kts | 256° |
| 2026-05-06 18:59 | -33.96682 | 18.59828 | 159 ft | 4 kts | 289° |
| 2026-05-06 18:59 | -33.96655 | 18.59811 | 159 ft | 5 kts | 355° |
| 2026-05-06 18:59 | -33.96621 | 18.59808 | 159 ft | 5 kts | 353° |
| 2026-05-06 19:00 | -33.96588 | 18.59800 | 159 ft | 5 kts | 346° |
| 2026-05-06 19:00 | -33.96548 | 18.59788 | 159 ft | 8 kts | 347° |
| 2026-05-06 19:00 | -33.96472 | 18.59771 | 159 ft | 12 kts | 349° |
| 2026-05-06 19:00 | -33.96389 | 18.59754 | 159 ft | 12 kts | 350° |
| 2026-05-06 19:01 | -33.96307 | 18.59736 | 159 ft | 12 kts | 350° |
| 2026-05-06 19:01 | -33.96225 | 18.59738 | 159 ft | 12 kts | 27° |
| 2026-05-06 19:01 | -33.96162 | 18.59806 | 157 ft | 12 kts | 45° |
| 2026-05-06 19:01 | -33.96103 | 18.59877 | 158 ft | 12 kts | 45° |
| 2026-05-06 19:02 | -33.96050 | 18.59942 | 159 ft | 10 kts | 48° |
| 2026-05-06 19:02 | -33.96037 | 18.60016 | 158 ft | 9 kts | 124° |
| 2026-05-06 19:02 | -33.96079 | 18.60035 | 159 ft | 0 kts | 165° |
| 2026-05-06 19:03 | -33.96086 | 18.60037 | 159 ft | 7 kts | 165° |
| 2026-05-06 19:03 | -33.96315 | 18.60110 | 158 ft | 76 kts | 165° |
| 2026-05-06 19:04 | -33.97125 | 18.60367 | 161 ft | 163 kts | 164° |
| 2026-05-06 19:04 | -33.98393 | 18.60764 | 532 ft | 204 kts | 166° |
| 2026-05-06 19:04 | -33.99801 | 18.61171 | 1664 ft | 214 kts | 164° |
| 2026-05-06 19:04 | -34.01265 | 18.61567 | 2533 ft | 212 kts | 165° |
| 2026-05-06 19:05 | -34.02708 | 18.61944 | 2818 ft | 213 kts | 163° |
| 2026-05-06 19:05 | -34.04158 | 18.62381 | 3076 ft | 215 kts | 163° |
| 2026-05-06 19:05 | -34.05656 | 18.62514 | 3275 ft | 223 kts | 187° |
| 2026-05-06 19:05 | -34.07141 | 18.61844 | 3572 ft | 234 kts | 200° |
| 2026-05-06 19:06 | -34.08616 | 18.60948 | 4236 ft | 239 kts | 202° |
| 2026-05-06 19:06 | -34.10090 | 18.60017 | 4988 ft | 239 kts | 203° |
| 2026-05-06 19:06 | -34.11560 | 18.59084 | 5720 ft | 239 kts | 203° |
| 2026-05-06 19:06 | -34.13040 | 18.58148 | 6411 ft | 242 kts | 203° |
| 2026-05-06 19:07 | -34.14540 | 18.57201 | 7057 ft | 244 kts | 203° |
| 2026-05-06 19:07 | -34.16053 | 18.56252 | 7668 ft | 248 kts | 203° |
| 2026-05-06 19:07 | -34.17587 | 18.55300 | 8225 ft | 253 kts | 203° |
| 2026-05-06 19:07 | -34.19160 | 18.54331 | 8882 ft | 255 kts | 203° |
| 2026-05-06 19:08 | -34.20750 | 18.53361 | 9546 ft | 256 kts | 203° |
| 2026-05-06 19:08 | -34.22351 | 18.52392 | 10127 ft | 259 kts | 203° |
| 2026-05-06 19:08 | -34.23984 | 18.51412 | 10539 ft | 268 kts | 203° |
| 2026-05-06 19:08 | -34.25691 | 18.50397 | 10903 ft | 281 kts | 203° |
| 2026-05-06 19:09 | -34.27523 | 18.49318 | 11073 ft | 303 kts | 203° |
| 2026-05-06 19:09 | -34.29454 | 18.48120 | 11215 ft | 323 kts | 211° |
| 2026-05-06 19:09 | -34.31038 | 18.46060 | 11352 ft | 353 kts | 238° |
| 2026-05-06 19:09 | -34.31704 | 18.43118 | 11763 ft | 377 kts | 265° |
| 2026-05-06 19:10 | -34.31320 | 18.39929 | 12367 ft | 389 kts | 282° |
| 2026-05-06 19:10 | -34.30484 | 18.36771 | 12943 ft | 400 kts | 286° |
| 2026-05-06 19:10 | -34.29456 | 18.33619 | 13697 ft | 406 kts | 289° |
| 2026-05-06 19:10 | -34.28335 | 18.30467 | 14459 ft | 409 kts | 289° |
| 2026-05-06 19:11 | -34.27187 | 18.27310 | 15142 ft | 413 kts | 289° |
| 2026-05-06 19:11 | -34.26030 | 18.24114 | 15786 ft | 418 kts | 289° |
| 2026-05-06 19:11 | -34.24866 | 18.20862 | 16430 ft | 422 kts | 288° |
| 2026-05-06 19:11 | -34.23706 | 18.17581 | 17079 ft | 427 kts | 288° |
| 2026-05-06 19:12 | -34.22544 | 18.14263 | 17748 ft | 431 kts | 287° |
| 2026-05-06 19:12 | -34.21387 | 18.10943 | 18377 ft | 436 kts | 287° |
| 2026-05-06 19:12 | -34.20210 | 18.07553 | 18944 ft | 440 kts | 287° |
| 2026-05-06 19:12 | -34.19020 | 18.04127 | 19556 ft | 442 kts | 287° |
| 2026-05-06 19:13 | -34.17827 | 18.00693 | 20183 ft | 445 kts | 287° |
| 2026-05-06 19:13 | -34.16625 | 17.97237 | 20775 ft | 447 kts | 287° |
| 2026-05-06 19:13 | -34.15418 | 17.93768 | 21360 ft | 451 kts | 288° |
| 2026-05-06 19:13 | -34.14194 | 17.90254 | 21894 ft | 454 kts | 288° |
| 2026-05-06 19:14 | -34.12963 | 17.86724 | 22450 ft | 458 kts | 288° |
| 2026-05-06 19:14 | -34.11723 | 17.83174 | 23008 ft | 461 kts | 288° |
| 2026-05-06 19:14 | -34.10471 | 17.79595 | 23567 ft | 463 kts | 288° |
| 2026-05-06 19:14 | -34.09227 | 17.76042 | 24047 ft | 466 kts | 288° |
| 2026-05-06 19:15 | -34.07962 | 17.72434 | 24546 ft | 467 kts | 288° |
| 2026-05-06 19:15 | -34.06693 | 17.68825 | 25135 ft | 466 kts | 289° |
| 2026-05-06 19:15 | -34.05425 | 17.65218 | 25560 ft | 469 kts | 289° |
| 2026-05-06 19:15 | -34.04144 | 17.61574 | 25926 ft | 474 kts | 289° |
| 2026-05-06 19:16 | -34.02853 | 17.57903 | 26305 ft | 477 kts | 289° |
| 2026-05-06 19:16 | -34.01553 | 17.54214 | 26717 ft | 480 kts | 289° |
| 2026-05-06 19:16 | -34.00245 | 17.50507 | 27127 ft | 482 kts | 289° |
| 2026-05-06 19:16 | -33.98927 | 17.46779 | 27530 ft | 485 kts | 289° |
| 2026-05-06 19:17 | -33.97600 | 17.43028 | 27894 ft | 488 kts | 289° |
| 2026-05-06 19:17 | -33.96267 | 17.39265 | 28238 ft | 490 kts | 290° |
| 2026-05-06 19:17 | -33.94929 | 17.35488 | 28705 ft | 490 kts | 290° |
| 2026-05-06 19:17 | -33.93589 | 17.31716 | 29109 ft | 491 kts | 290° |
| 2026-05-06 19:18 | -33.92239 | 17.27920 | 29407 ft | 494 kts | 290° |
| 2026-05-06 19:18 | -33.90880 | 17.24099 | 29663 ft | 498 kts | 290° |
| 2026-05-06 19:18 | -33.89510 | 17.20255 | 29937 ft | 500 kts | 290° |
| 2026-05-06 19:18 | -33.88138 | 17.16408 | 30229 ft | 502 kts | 290° |
| 2026-05-06 19:19 | -33.86758 | 17.12545 | 30492 ft | 503 kts | 290° |
| 2026-05-06 19:19 | -33.85379 | 17.08691 | 30859 ft | 501 kts | 290° |
| 2026-05-06 19:19 | -33.84004 | 17.04851 | 31267 ft | 497 kts | 290° |
| 2026-05-06 19:19 | -33.82641 | 17.01055 | 31782 ft | 492 kts | 290° |
| 2026-05-06 19:20 | -33.81291 | 16.97295 | 32200 ft | 489 kts | 290° |
| 2026-05-06 19:20 | -33.79954 | 16.93577 | 32195 ft | 478 kts | 290° |
| 2026-05-06 19:20 | -33.78653 | 16.89969 | 32201 ft | 462 kts | 290° |
| 2026-05-06 19:21 | -33.76127 | 16.82952 | 32233 ft | 465 kts | 290° |
| 2026-05-06 19:21 | -33.73519 | 16.75701 | 32241 ft | 480 kts | 290° |
| 2026-05-06 19:22 | -33.70849 | 16.68317 | 32218 ft | 482 kts | 290° |
| 2026-05-06 19:22 | -33.68176 | 16.60958 | 32216 ft | 479 kts | 290° |
| 2026-05-06 19:23 | -33.65517 | 16.53645 | 32221 ft | 477 kts | 290° |
| 2026-05-06 19:23 | -33.62858 | 16.46344 | 32229 ft | 477 kts | 290° |
| 2026-05-06 19:24 | -33.60195 | 16.39050 | 32230 ft | 478 kts | 289° |
| 2026-05-06 19:24 | -33.57527 | 16.31756 | 32221 ft | 478 kts | 289° |
| 2026-05-06 19:25 | -33.54846 | 16.24443 | 32233 ft | 479 kts | 289° |
| 2026-05-06 19:25 | -33.52160 | 16.17136 | 32241 ft | 479 kts | 289° |
| 2026-05-06 19:26 | -33.49464 | 16.09815 | 32238 ft | 480 kts | 289° |
| 2026-05-06 19:26 | -33.46770 | 16.02513 | 32261 ft | 488 kts | 289° |
| 2026-05-06 19:27 | -33.43997 | 15.95009 | 32246 ft | 496 kts | 290° |
| 2026-05-06 19:27 | -33.41200 | 15.87476 | 32233 ft | 493 kts | 290° |
| 2026-05-06 19:28 | -33.38419 | 15.80000 | 32232 ft | 491 kts | 290° |
| 2026-05-06 19:28 | -33.35642 | 15.72546 | 32235 ft | 489 kts | 290° |
| 2026-05-06 19:29 | -33.32873 | 15.65127 | 32252 ft | 488 kts | 290° |
| 2026-05-06 19:29 | -33.30114 | 15.57751 | 32250 ft | 488 kts | 290° |
| 2026-05-06 19:30 | -33.27340 | 15.50353 | 32250 ft | 487 kts | 290° |
| 2026-05-06 19:30 | -33.24565 | 15.42969 | 32254 ft | 487 kts | 290° |
| 2026-05-06 19:31 | -33.21787 | 15.35592 | 32257 ft | 487 kts | 290° |
| 2026-05-06 19:31 | -33.17610 | 15.24529 | 32257 ft | 487 kts | 290° |
| 2026-05-06 19:32 | -33.14821 | 15.17166 | 32260 ft | 487 kts | 290° |
| 2026-05-06 19:32 | -33.12028 | 15.09803 | 32261 ft | 486 kts | 290° |
| 2026-05-06 19:33 | -33.09232 | 15.02461 | 32266 ft | 487 kts | 291° |
| 2026-05-06 19:33 | -33.05800 | 14.95463 | 32263 ft | 492 kts | 301° |
| 2026-05-06 19:34 | -33.01872 | 14.88794 | 32256 ft | 491 kts | 301° |
| 2026-05-06 19:34 | -32.97985 | 14.82170 | 32269 ft | 491 kts | 301° |
| 2026-05-06 19:35 | -32.94094 | 14.75491 | 32390 ft | 490 kts | 301° |
| 2026-05-06 19:35 | -32.92160 | 14.72164 | 32721 ft | 487 kts | 301° |
| 2026-05-06 19:35 | -32.90236 | 14.68856 | 33150 ft | 483 kts | 301° |
| 2026-05-06 19:36 | -32.88330 | 14.65583 | 33537 ft | 480 kts | 301° |
| 2026-05-06 19:36 | -32.86432 | 14.62324 | 33892 ft | 477 kts | 300° |
| 2026-05-06 19:36 | -32.84549 | 14.59094 | 34286 ft | 473 kts | 300° |
| 2026-05-06 19:36 | -32.82678 | 14.55891 | 34586 ft | 470 kts | 300° |
| 2026-05-06 19:37 | -32.80811 | 14.52691 | 34726 ft | 471 kts | 300° |
| 2026-05-06 19:37 | -32.78934 | 14.49476 | 34770 ft | 475 kts | 300° |
| 2026-05-06 19:37 | -32.75794 | 14.44106 | 34961 ft | 476 kts | 300° |
| 2026-05-06 19:38 | -32.73260 | 14.39783 | 35125 ft | 477 kts | 300° |
| 2026-05-06 19:38 | -32.71361 | 14.36545 | 35218 ft | 478 kts | 300° |
| 2026-05-06 19:38 | -32.67548 | 14.30056 | 35395 ft | 480 kts | 300° |
| 2026-05-06 19:39 | -32.65637 | 14.26808 | 35498 ft | 481 kts | 300° |
| 2026-05-06 19:39 | -32.63718 | 14.23548 | 35587 ft | 482 kts | 300° |
| 2026-05-06 19:39 | -32.59872 | 14.17024 | 35746 ft | 482 kts | 300° |
| 2026-05-06 19:40 | -32.56045 | 14.10545 | 35898 ft | 483 kts | 300° |
| 2026-05-06 19:40 | -32.52179 | 14.04008 | 36023 ft | 485 kts | 300° |
| 2026-05-06 19:41 | -32.48309 | 13.97478 | 36139 ft | 486 kts | 300° |
| 2026-05-06 19:41 | -32.44415 | 13.90918 | 36252 ft | 487 kts | 300° |
| 2026-05-06 19:42 | -32.40516 | 13.84361 | 36352 ft | 488 kts | 300° |
| 2026-05-06 19:42 | -32.36613 | 13.77810 | 36507 ft | 487 kts | 300° |
| 2026-05-06 19:43 | -32.33469 | 13.72540 | 36527 ft | 488 kts | 300° |
| 2026-05-06 19:43 | -32.30956 | 13.68333 | 36579 ft | 488 kts | 300° |
| 2026-05-06 19:44 | -32.26394 | 13.60708 | 36666 ft | 489 kts | 300° |
| 2026-05-06 19:44 | -32.23098 | 13.55208 | 36712 ft | 490 kts | 300° |
| 2026-05-06 19:45 | -32.19156 | 13.48642 | 36786 ft | 490 kts | 300° |
| 2026-05-06 19:45 | -32.15241 | 13.42132 | 36888 ft | 488 kts | 300° |
| 2026-05-06 19:46 | -32.11307 | 13.35602 | 36937 ft | 489 kts | 300° |
| 2026-05-06 19:46 | -32.07362 | 13.29061 | 36961 ft | 489 kts | 300° |
| 2026-05-06 19:47 | -32.03409 | 13.22522 | 37007 ft | 489 kts | 300° |
| 2026-05-06 19:47 | -31.99449 | 13.15981 | 37041 ft | 490 kts | 300° |
| 2026-05-06 19:48 | -31.95517 | 13.09498 | 37106 ft | 489 kts | 300° |
| 2026-05-06 19:48 | -31.91562 | 13.02988 | 37183 ft | 488 kts | 300° |
| 2026-05-06 19:49 | -31.87611 | 12.96495 | 37195 ft | 488 kts | 300° |
| 2026-05-06 19:49 | -31.83648 | 12.89992 | 37205 ft | 488 kts | 300° |
| 2026-05-06 19:50 | -31.79683 | 12.83498 | 37211 ft | 489 kts | 300° |
| 2026-05-06 19:50 | -31.75769 | 12.77101 | 37199 ft | 484 kts | 300° |
| 2026-05-06 19:51 | -31.71869 | 12.70744 | 37102 ft | 479 kts | 300° |
| 2026-05-06 19:51 | -31.67973 | 12.64389 | 37109 ft | 480 kts | 300° |
| 2026-05-06 19:52 | -31.64056 | 12.58011 | 37116 ft | 481 kts | 300° |
| 2026-05-06 19:52 | -31.60131 | 12.51635 | 37140 ft | 483 kts | 300° |
| 2026-05-06 19:53 | -31.56192 | 12.45248 | 37153 ft | 483 kts | 300° |
| 2026-05-06 19:53 | -31.52240 | 12.38851 | 37158 ft | 484 kts | 300° |
| 2026-05-06 19:54 | -31.50272 | 12.35673 | 37451 ft | 478 kts | 300° |
| 2026-05-06 19:54 | -31.48330 | 12.32542 | 37720 ft | 474 kts | 300° |
| 2026-05-06 19:54 | -31.44443 | 12.26269 | 37700 ft | 476 kts | 299° |
| 2026-05-06 19:55 | -31.40584 | 12.20048 | 37702 ft | 474 kts | 299° |
| 2026-05-06 19:55 | -31.36713 | 12.13822 | 37529 ft | 471 kts | 300° |
| 2026-05-06 19:56 | -31.34788 | 12.10730 | 37030 ft | 471 kts | 300° |
| 2026-05-06 19:56 | -31.32855 | 12.07625 | 36445 ft | 473 kts | 300° |
| 2026-05-06 19:56 | -31.30911 | 12.04503 | 35873 ft | 475 kts | 300° |
| 2026-05-06 19:56 | -31.28958 | 12.01370 | 35332 ft | 477 kts | 300° |
| 2026-05-06 19:57 | -31.27005 | 11.98242 | 34926 ft | 476 kts | 300° |
| 2026-05-06 19:57 | -31.25054 | 11.95122 | 34605 ft | 474 kts | 300° |
| 2026-05-06 19:57 | -31.22108 | 11.90424 | 34378 ft | 465 kts | 300° |
| 2026-05-06 19:57 | -31.06995 | 11.66348 | 34284 ft | 457 kts | 300° |
| 2026-05-06 19:58 | -30.78833 | 11.21873 | 34407 ft | 467 kts | 300° |
| 2026-05-06 19:58 | -30.74995 | 11.15862 | 34312 ft | 462 kts | 300° |
| 2026-05-06 19:59 | -30.71183 | 11.09904 | 34319 ft | 458 kts | 300° |
| 2026-05-06 19:59 | -30.67381 | 11.03953 | 34321 ft | 459 kts | 300° |
| 2026-05-06 20:00 | -30.63684 | 10.98175 | 34325 ft | 460 kts | 300° |
| 2026-05-06 20:00 | -30.59858 | 10.92207 | 34325 ft | 461 kts | 300° |
| 2026-05-06 20:01 | -30.56048 | 10.86275 | 34331 ft | 462 kts | 300° |
| 2026-05-06 20:01 | -30.52208 | 10.80305 | 34330 ft | 462 kts | 300° |
| 2026-05-06 20:02 | -30.48365 | 10.74342 | 34314 ft | 460 kts | 300° |
| 2026-05-06 20:02 | -30.44536 | 10.68409 | 34324 ft | 459 kts | 300° |
| 2026-05-06 20:03 | -30.40740 | 10.62534 | 34324 ft | 457 kts | 300° |
| 2026-05-06 20:03 | -30.36933 | 10.56648 | 34311 ft | 456 kts | 299° |
| 2026-05-06 20:04 | -30.33132 | 10.50782 | 34324 ft | 455 kts | 300° |
| 2026-05-06 20:04 | -30.29335 | 10.44930 | 34323 ft | 454 kts | 300° |
| 2026-05-06 20:05 | -30.25535 | 10.39083 | 34319 ft | 454 kts | 299° |
| 2026-05-06 20:05 | -30.21736 | 10.33246 | 34324 ft | 454 kts | 299° |
| 2026-05-06 20:06 | -30.17941 | 10.27422 | 34339 ft | 453 kts | 299° |
| 2026-05-06 20:06 | -30.14138 | 10.21595 | 34342 ft | 453 kts | 299° |
| 2026-05-06 20:07 | -30.10338 | 10.15781 | 34320 ft | 453 kts | 299° |
| 2026-05-06 20:07 | -30.06538 | 10.09974 | 34330 ft | 453 kts | 299° |
| 2026-05-06 20:08 | -30.02762 | 10.04211 | 34330 ft | 453 kts | 299° |
| 2026-05-06 20:08 | -29.98888 | 9.98460 | 34324 ft | 456 kts | 302° |
| 2026-05-06 20:09 | -29.94721 | 9.92928 | 34328 ft | 456 kts | 303° |
| 2026-05-06 20:09 | -29.90540 | 9.87430 | 34328 ft | 456 kts | 303° |
| 2026-05-06 20:10 | -29.86364 | 9.81925 | 34322 ft | 456 kts | 303° |
| 2026-05-06 20:10 | -29.82202 | 9.76428 | 34331 ft | 455 kts | 303° |
| 2026-05-06 20:11 | -29.78037 | 9.70927 | 34329 ft | 455 kts | 303° |
| 2026-05-06 20:11 | -29.73873 | 9.65435 | 34324 ft | 454 kts | 303° |
| 2026-05-06 20:12 | -29.69743 | 9.59996 | 34322 ft | 454 kts | 303° |
| 2026-05-06 20:12 | -29.65595 | 9.54541 | 34328 ft | 453 kts | 303° |
| 2026-05-06 20:13 | -29.61443 | 9.49088 | 34331 ft | 452 kts | 303° |
| 2026-05-06 20:13 | -29.57292 | 9.43643 | 34329 ft | 452 kts | 303° |
| 2026-05-06 20:14 | -29.53150 | 9.38218 | 34331 ft | 452 kts | 303° |
| 2026-05-06 20:14 | -29.49029 | 9.32827 | 34310 ft | 451 kts | 302° |
| 2026-05-06 20:15 | -29.44888 | 9.27419 | 34329 ft | 450 kts | 302° |
| 2026-05-06 20:15 | -29.40763 | 9.22040 | 34317 ft | 448 kts | 302° |
| 2026-05-06 20:16 | -29.36648 | 9.16679 | 34335 ft | 447 kts | 302° |
| 2026-05-06 20:16 | -29.32567 | 9.11369 | 34335 ft | 446 kts | 302° |
| 2026-05-06 20:17 | -29.28437 | 9.06002 | 34332 ft | 446 kts | 302° |
| 2026-05-06 20:17 | -29.24357 | 9.00707 | 34330 ft | 446 kts | 302° |
| 2026-05-06 20:18 | -29.20255 | 8.95392 | 34324 ft | 444 kts | 302° |
| 2026-05-06 20:18 | -29.16168 | 8.90104 | 34324 ft | 443 kts | 302° |
| 2026-05-06 20:19 | -29.12086 | 8.84828 | 34328 ft | 443 kts | 302° |
| 2026-05-06 20:19 | -29.08002 | 8.79555 | 34330 ft | 442 kts | 302° |
| 2026-05-06 20:20 | -29.03918 | 8.74288 | 34329 ft | 442 kts | 302° |
| 2026-05-06 20:20 | -28.99863 | 8.69067 | 34324 ft | 442 kts | 302° |
| 2026-05-06 20:21 | -28.95780 | 8.63817 | 34307 ft | 442 kts | 302° |
| 2026-05-06 20:21 | -28.91694 | 8.58571 | 34320 ft | 441 kts | 302° |
| 2026-05-06 20:22 | -28.87615 | 8.53339 | 34330 ft | 441 kts | 302° |
| 2026-05-06 20:22 | -28.83530 | 8.48106 | 34325 ft | 441 kts | 302° |
| 2026-05-06 20:23 | -28.79444 | 8.42878 | 34325 ft | 441 kts | 302° |
| 2026-05-06 20:23 | -28.75358 | 8.37658 | 34328 ft | 441 kts | 302° |
| 2026-05-06 20:24 | -28.71293 | 8.32470 | 34322 ft | 441 kts | 303° |
| 2026-05-06 20:24 | -28.67202 | 8.27256 | 34313 ft | 441 kts | 303° |
| 2026-05-06 20:25 | -28.63104 | 8.22041 | 34316 ft | 442 kts | 303° |
| 2026-05-06 20:25 | -28.59002 | 8.16828 | 34322 ft | 442 kts | 303° |
| 2026-05-06 20:26 | -28.54892 | 8.11608 | 34324 ft | 443 kts | 303° |
| 2026-05-06 20:26 | -28.50774 | 8.06388 | 34317 ft | 443 kts | 303° |
| 2026-05-06 20:27 | -28.46653 | 8.01169 | 34320 ft | 443 kts | 303° |
| 2026-05-06 20:27 | -28.42530 | 7.95954 | 34274 ft | 444 kts | 304° |
| 2026-05-06 20:28 | -28.38399 | 7.90735 | 34310 ft | 445 kts | 304° |
| 2026-05-06 20:28 | -28.34275 | 7.85531 | 34320 ft | 446 kts | 304° |
| 2026-05-06 20:29 | -28.30106 | 7.80278 | 34314 ft | 448 kts | 304° |
| 2026-05-06 20:29 | -28.25926 | 7.75019 | 34316 ft | 449 kts | 304° |
| 2026-05-06 20:30 | -28.19639 | 7.67121 | 34314 ft | 449 kts | 304° |
| 2026-05-06 20:31 | -28.15448 | 7.61865 | 34318 ft | 449 kts | 304° |
| 2026-05-06 20:31 | -28.11285 | 7.56650 | 34303 ft | 448 kts | 304° |
| 2026-05-06 20:32 | -28.07100 | 7.51415 | 34311 ft | 448 kts | 304° |
| 2026-05-06 20:32 | -28.02921 | 7.46192 | 34316 ft | 447 kts | 304° |
| 2026-05-06 20:33 | -27.98745 | 7.40979 | 34314 ft | 447 kts | 304° |
| 2026-05-06 20:33 | -27.95270 | 7.36646 | 34313 ft | 447 kts | 304° |
| 2026-05-06 20:34 | -27.91060 | 7.31403 | 34313 ft | 447 kts | 304° |
| 2026-05-06 20:34 | -27.86903 | 7.26232 | 34292 ft | 447 kts | 304° |
| 2026-05-06 20:35 | -27.82712 | 7.21027 | 34309 ft | 448 kts | 304° |
| 2026-05-06 20:35 | -27.78509 | 7.15811 | 34311 ft | 449 kts | 305° |
| 2026-05-06 20:36 | -27.74302 | 7.10597 | 34311 ft | 449 kts | 305° |
| 2026-05-06 20:36 | -27.70087 | 7.05382 | 34315 ft | 450 kts | 305° |
| 2026-05-06 20:37 | -27.65861 | 7.00158 | 34310 ft | 450 kts | 305° |
| 2026-05-06 20:37 | -27.61635 | 6.94942 | 34311 ft | 450 kts | 305° |
| 2026-05-06 20:38 | -27.57431 | 6.89758 | 34300 ft | 450 kts | 305° |
| 2026-05-06 20:38 | -27.53193 | 6.84540 | 34307 ft | 450 kts | 305° |
| 2026-05-06 20:39 | -27.48962 | 6.79334 | 34320 ft | 450 kts | 305° |
| 2026-05-06 20:39 | -27.44729 | 6.74135 | 34303 ft | 451 kts | 305° |
| 2026-05-06 20:40 | -27.40491 | 6.68935 | 34304 ft | 451 kts | 305° |
| 2026-05-06 20:40 | -27.36249 | 6.63736 | 34313 ft | 451 kts | 305° |
| 2026-05-06 20:41 | -27.32009 | 6.58546 | 34319 ft | 450 kts | 305° |
| 2026-05-06 20:41 | -27.27765 | 6.53358 | 34310 ft | 450 kts | 306° |
| 2026-05-06 20:42 | -27.23521 | 6.48176 | 34310 ft | 451 kts | 306° |
| 2026-05-06 20:42 | -27.19298 | 6.43025 | 34306 ft | 451 kts | 306° |
| 2026-05-06 20:43 | -27.15043 | 6.37843 | 34308 ft | 451 kts | 306° |
| 2026-05-06 20:43 | -27.10788 | 6.32666 | 34307 ft | 451 kts | 306° |
| 2026-05-06 20:44 | -27.06529 | 6.27491 | 34307 ft | 451 kts | 306° |
| 2026-05-06 20:44 | -27.02260 | 6.22309 | 34288 ft | 451 kts | 306° |
| 2026-05-06 20:45 | -26.97999 | 6.17143 | 34309 ft | 451 kts | 306° |
| 2026-05-06 20:45 | -26.93730 | 6.11975 | 34303 ft | 452 kts | 306° |
| 2026-05-06 20:46 | -26.89455 | 6.06804 | 34307 ft | 452 kts | 306° |
| 2026-05-06 20:46 | -26.85178 | 6.01639 | 34306 ft | 452 kts | 306° |
| 2026-05-06 20:47 | -26.80893 | 5.96470 | 34309 ft | 452 kts | 306° |
| 2026-05-06 20:47 | -26.76637 | 5.91341 | 34303 ft | 452 kts | 307° |
| 2026-05-06 20:48 | -26.72328 | 5.86154 | 34291 ft | 452 kts | 307° |
| 2026-05-06 20:48 | -26.68067 | 5.81032 | 34301 ft | 453 kts | 307° |
| 2026-05-06 20:49 | -26.63775 | 5.75878 | 34307 ft | 453 kts | 307° |
| 2026-05-06 20:49 | -26.59470 | 5.70715 | 34300 ft | 454 kts | 307° |
| 2026-05-06 20:50 | -26.55157 | 5.65548 | 34300 ft | 454 kts | 307° |
| 2026-05-06 20:50 | -26.50847 | 5.60393 | 34298 ft | 454 kts | 307° |
| 2026-05-06 20:51 | -26.46534 | 5.55239 | 34293 ft | 454 kts | 307° |
| 2026-05-06 20:51 | -26.42226 | 5.50096 | 34293 ft | 454 kts | 307° |
| 2026-05-06 20:52 | -26.37910 | 5.44949 | 34302 ft | 455 kts | 307° |
| 2026-05-06 20:52 | -26.33577 | 5.39789 | 34291 ft | 456 kts | 307° |
| 2026-05-06 20:53 | -26.29265 | 5.34660 | 34293 ft | 457 kts | 307° |
| 2026-05-06 20:53 | -26.24920 | 5.29498 | 34303 ft | 457 kts | 308° |
| 2026-05-06 20:54 | -26.20567 | 5.24332 | 34300 ft | 457 kts | 308° |
| 2026-05-06 20:54 | -26.16214 | 5.19172 | 34267 ft | 457 kts | 308° |
| 2026-05-06 20:55 | -26.11859 | 5.14015 | 34282 ft | 458 kts | 308° |
| 2026-05-06 20:55 | -26.07488 | 5.08844 | 34291 ft | 459 kts | 308° |
| 2026-05-06 20:56 | -26.03105 | 5.03666 | 34297 ft | 460 kts | 308° |
| 2026-05-06 20:56 | -25.98790 | 4.98465 | 34293 ft | 459 kts | 305° |
| 2026-05-06 20:57 | -25.94663 | 4.93039 | 34295 ft | 459 kts | 305° |
| 2026-05-06 20:57 | -25.90559 | 4.87606 | 34288 ft | 459 kts | 305° |
| 2026-05-06 20:58 | -25.86436 | 4.82170 | 34273 ft | 460 kts | 305° |
| 2026-05-06 20:58 | -25.82307 | 4.76748 | 34285 ft | 460 kts | 305° |
| 2026-05-06 20:59 | -25.78163 | 4.71316 | 34284 ft | 461 kts | 305° |
| 2026-05-06 20:59 | -25.74007 | 4.65876 | 34288 ft | 462 kts | 305° |
| 2026-05-06 21:00 | -25.69839 | 4.60426 | 34283 ft | 463 kts | 305° |
| 2026-05-06 21:00 | -25.65669 | 4.54981 | 34273 ft | 464 kts | 306° |
| 2026-05-06 21:01 | -25.61490 | 4.49530 | 34275 ft | 464 kts | 306° |
| 2026-05-06 21:01 | -25.57338 | 4.44121 | 34281 ft | 464 kts | 306° |
| 2026-05-06 21:02 | -25.53157 | 4.38679 | 34285 ft | 464 kts | 306° |
| 2026-05-06 21:02 | -25.48962 | 4.33226 | 34286 ft | 465 kts | 306° |
| 2026-05-06 21:03 | -25.44761 | 4.27772 | 34278 ft | 466 kts | 306° |
| 2026-05-06 21:03 | -25.40548 | 4.22308 | 34281 ft | 466 kts | 306° |
| 2026-05-06 21:04 | -25.36336 | 4.16853 | 34270 ft | 467 kts | 306° |
| 2026-05-06 21:04 | -25.32146 | 4.11433 | 34277 ft | 467 kts | 306° |
| 2026-05-06 21:05 | -25.27924 | 4.05977 | 34283 ft | 467 kts | 306° |
| 2026-05-06 21:05 | -25.23697 | 4.00521 | 34277 ft | 467 kts | 306° |
| 2026-05-06 21:06 | -25.19470 | 3.95072 | 34277 ft | 467 kts | 306° |
| 2026-05-06 21:06 | -25.15243 | 3.89629 | 34275 ft | 466 kts | 306° |
| 2026-05-06 21:07 | -25.11017 | 3.84194 | 34277 ft | 466 kts | 306° |
| 2026-05-06 21:07 | -25.06816 | 3.78796 | 34268 ft | 466 kts | 306° |
| 2026-05-06 21:08 | -25.02564 | 3.73340 | 34279 ft | 466 kts | 306° |
| 2026-05-06 21:08 | -24.98340 | 3.67926 | 34277 ft | 466 kts | 306° |
| 2026-05-06 21:09 | -24.94140 | 3.62549 | 34262 ft | 466 kts | 306° |
| 2026-05-06 21:09 | -24.89902 | 3.57129 | 34272 ft | 467 kts | 306° |
| 2026-05-06 21:10 | -24.85649 | 3.51695 | 34275 ft | 469 kts | 306° |
| 2026-05-06 21:10 | -24.81384 | 3.46254 | 34274 ft | 470 kts | 306° |
| 2026-05-06 21:11 | -24.77102 | 3.40797 | 34272 ft | 471 kts | 307° |
| 2026-05-06 21:11 | -24.72818 | 3.35344 | 34275 ft | 471 kts | 307° |
| 2026-05-06 21:12 | -24.68528 | 3.29890 | 34269 ft | 471 kts | 307° |
| 2026-05-06 21:12 | -24.64242 | 3.24447 | 34260 ft | 471 kts | 307° |
| 2026-05-06 21:13 | -24.59985 | 3.19046 | 34268 ft | 471 kts | 307° |
| 2026-05-06 21:13 | -24.55695 | 3.13611 | 34270 ft | 471 kts | 307° |
| 2026-05-06 21:14 | -24.51402 | 3.08176 | 34269 ft | 471 kts | 307° |
| 2026-05-06 21:14 | -24.47097 | 3.02734 | 34263 ft | 472 kts | 307° |
| 2026-05-06 21:15 | -24.42792 | 2.97297 | 34268 ft | 472 kts | 307° |
| 2026-05-06 21:15 | -24.38476 | 2.91854 | 34268 ft | 472 kts | 307° |
| 2026-05-06 21:16 | -24.34159 | 2.86414 | 34252 ft | 473 kts | 307° |
| 2026-05-06 21:16 | -24.29838 | 2.80976 | 34266 ft | 473 kts | 307° |
| 2026-05-06 21:17 | -24.25536 | 2.75567 | 34266 ft | 474 kts | 307° |
| 2026-05-06 21:17 | -24.21193 | 2.70114 | 34263 ft | 474 kts | 307° |
| 2026-05-06 21:18 | -24.16846 | 2.64661 | 34257 ft | 475 kts | 307° |
| 2026-05-06 21:18 | -24.12494 | 2.59210 | 34261 ft | 475 kts | 307° |
| 2026-05-06 21:19 | -24.08146 | 2.53768 | 34257 ft | 475 kts | 307° |
| 2026-05-06 21:19 | -24.03819 | 2.48360 | 34247 ft | 475 kts | 307° |
| 2026-05-06 21:20 | -23.99474 | 2.42933 | 34259 ft | 475 kts | 308° |
| 2026-05-06 21:20 | -23.95117 | 2.37499 | 34259 ft | 475 kts | 308° |
| 2026-05-06 21:21 | -23.91485 | 2.32973 | 34259 ft | 476 kts | 308° |
| 2026-05-06 21:21 | -23.87116 | 2.27535 | 34245 ft | 476 kts | 308° |
| 2026-05-06 21:22 | -23.82740 | 2.22094 | 34268 ft | 477 kts | 308° |
| 2026-05-06 21:22 | -23.78361 | 2.16656 | 34252 ft | 477 kts | 308° |
| 2026-05-06 21:23 | -23.73975 | 2.11214 | 34251 ft | 477 kts | 308° |
| 2026-05-06 21:23 | -23.69579 | 2.05767 | 34256 ft | 478 kts | 308° |
| 2026-05-06 21:24 | -23.65181 | 2.00322 | 34255 ft | 478 kts | 308° |
| 2026-05-06 21:24 | -23.60777 | 1.94877 | 34253 ft | 479 kts | 308° |
| 2026-05-06 21:25 | -23.56361 | 1.89423 | 34246 ft | 479 kts | 308° |
| 2026-05-06 21:25 | -23.51975 | 1.84012 | 34249 ft | 479 kts | 308° |
| 2026-05-06 21:26 | -23.47559 | 1.78569 | 34248 ft | 479 kts | 308° |
| 2026-05-06 21:26 | -23.43137 | 1.73126 | 34248 ft | 479 kts | 308° |
| 2026-05-06 21:27 | -23.38719 | 1.67693 | 34241 ft | 479 kts | 308° |
| 2026-05-06 21:27 | -23.34294 | 1.62257 | 34249 ft | 480 kts | 308° |
| 2026-05-06 21:28 | -23.29864 | 1.56822 | 34246 ft | 480 kts | 308° |
| 2026-05-06 21:28 | -23.25422 | 1.51377 | 34244 ft | 481 kts | 308° |
| 2026-05-06 21:29 | -23.21005 | 1.45968 | 34243 ft | 481 kts | 308° |
| 2026-05-06 21:29 | -23.16556 | 1.40527 | 34244 ft | 481 kts | 308° |
| 2026-05-06 21:30 | -23.12101 | 1.35086 | 34242 ft | 481 kts | 308° |
| 2026-05-06 21:30 | -23.07651 | 1.29654 | 34234 ft | 481 kts | 309° |
| 2026-05-06 21:31 | -23.03194 | 1.24220 | 34239 ft | 482 kts | 308° |
| 2026-05-06 21:31 | -22.98735 | 1.18791 | 34243 ft | 482 kts | 309° |
| 2026-05-06 21:32 | -22.94271 | 1.13360 | 34233 ft | 482 kts | 308° |
| 2026-05-06 21:32 | -22.87596 | 1.05252 | 34241 ft | 482 kts | 308° |
| 2026-05-06 21:33 | -22.83127 | 0.99829 | 34233 ft | 482 kts | 309° |
| 2026-05-06 21:33 | -22.78651 | 0.94405 | 34235 ft | 482 kts | 308° |
| 2026-05-06 21:34 | -22.74180 | 0.88992 | 34233 ft | 482 kts | 308° |
| 2026-05-06 21:34 | -22.69730 | 0.83610 | 34230 ft | 482 kts | 309° |
| 2026-05-06 21:35 | -22.65246 | 0.78193 | 34237 ft | 483 kts | 309° |
| 2026-05-06 21:35 | -22.60754 | 0.72772 | 34230 ft | 484 kts | 309° |
| 2026-05-06 21:36 | -22.56248 | 0.67340 | 34231 ft | 484 kts | 309° |
| 2026-05-06 21:36 | -22.51737 | 0.61907 | 34229 ft | 485 kts | 309° |
| 2026-05-06 21:37 | -22.47219 | 0.56472 | 34232 ft | 485 kts | 309° |
| 2026-05-06 21:37 | -22.42700 | 0.51042 | 34219 ft | 485 kts | 309° |
| 2026-05-06 21:38 | -22.38185 | 0.45622 | 34224 ft | 485 kts | 309° |
| 2026-05-06 21:38 | -22.33692 | 0.40234 | 34224 ft | 486 kts | 309° |
| 2026-05-06 21:39 | -22.29168 | 0.34814 | 34221 ft | 486 kts | 309° |
| 2026-05-06 21:39 | -22.24632 | 0.29386 | 34224 ft | 486 kts | 309° |
| 2026-05-06 21:40 | -22.20091 | 0.23957 | 34223 ft | 487 kts | 309° |
| 2026-05-06 21:40 | -22.15548 | 0.18531 | 34220 ft | 487 kts | 309° |
| 2026-05-06 21:41 | -22.11006 | 0.13112 | 34223 ft | 487 kts | 309° |
| 2026-05-06 21:41 | -22.06491 | 0.07730 | 34222 ft | 486 kts | 309° |
| 2026-05-06 21:42 | -22.01948 | 0.02320 | 34223 ft | 486 kts | 309° |
| 2026-05-06 21:42 | -21.97043 | -0.02723 | 34218 ft | 489 kts | 318° |
| 2026-05-06 21:43 | -21.91725 | -0.07311 | 34215 ft | 489 kts | 318° |
| 2026-05-06 21:43 | -21.86413 | -0.11893 | 34222 ft | 489 kts | 318° |
| 2026-05-06 21:44 | -21.81124 | -0.16490 | 34220 ft | 489 kts | 317° |
| 2026-05-06 21:44 | -21.75844 | -0.21096 | 34215 ft | 489 kts | 318° |
| 2026-05-06 21:45 | -21.70553 | -0.25710 | 34218 ft | 489 kts | 318° |
| 2026-05-06 21:45 | -21.65296 | -0.30290 | 34217 ft | 490 kts | 318° |
| 2026-05-06 21:46 | -21.59959 | -0.34933 | 34215 ft | 491 kts | 317° |
| 2026-05-06 21:46 | -21.54675 | -0.39525 | 34213 ft | 491 kts | 317° |
| 2026-05-06 21:47 | -21.49364 | -0.44136 | 34214 ft | 491 kts | 318° |
| 2026-05-06 21:47 | -21.44037 | -0.48757 | 34206 ft | 491 kts | 318° |
| 2026-05-06 21:48 | -21.38717 | -0.53366 | 34215 ft | 492 kts | 318° |
| 2026-05-06 21:48 | -21.33384 | -0.57983 | 34212 ft | 492 kts | 318° |
| 2026-05-06 21:49 | -21.28046 | -0.62600 | 34212 ft | 493 kts | 319° |
| 2026-05-06 21:49 | -21.22745 | -0.67180 | 34209 ft | 493 kts | 318° |
| 2026-05-06 21:50 | -21.17405 | -0.71789 | 34207 ft | 493 kts | 318° |
| 2026-05-06 21:50 | -21.12063 | -0.76396 | 34194 ft | 493 kts | 319° |
| 2026-05-06 21:51 | -21.06717 | -0.81001 | 34201 ft | 493 kts | 317° |
| 2026-05-06 21:51 | -21.01370 | -0.85603 | 34206 ft | 493 kts | 318° |
| 2026-05-06 21:52 | -20.96021 | -0.90203 | 34203 ft | 493 kts | 318° |
| 2026-05-06 21:52 | -20.90671 | -0.94799 | 34205 ft | 493 kts | 319° |
| 2026-05-06 21:53 | -20.85316 | -0.99395 | 34199 ft | 493 kts | 318° |
| 2026-05-06 21:53 | -20.79955 | -1.03992 | 34189 ft | 494 kts | 319° |
| 2026-05-06 21:54 | -20.74597 | -1.08582 | 34196 ft | 494 kts | 319° |
| 2026-05-06 21:54 | -20.69229 | -1.13177 | 34199 ft | 494 kts | 319° |
| 2026-05-06 21:55 | -20.63897 | -1.17736 | 34196 ft | 494 kts | 318° |
| 2026-05-06 21:55 | -20.58523 | -1.22327 | 34193 ft | 495 kts | 319° |
| 2026-05-06 21:56 | -20.53146 | -1.26916 | 34194 ft | 495 kts | 319° |
| 2026-05-06 21:56 | -20.47767 | -1.31503 | 34194 ft | 495 kts | 318° |
| 2026-05-06 21:57 | -20.42386 | -1.36086 | 34188 ft | 495 kts | 319° |
| 2026-05-06 21:57 | -20.37004 | -1.40667 | 34188 ft | 495 kts | 319° |
| 2026-05-06 21:58 | -20.31626 | -1.45241 | 34185 ft | 495 kts | 319° |
| 2026-05-06 21:58 | -20.26277 | -1.49784 | 34186 ft | 495 kts | 318° |
| 2026-05-06 21:59 | -20.20899 | -1.54349 | 34179 ft | 494 kts | 318° |
| 2026-05-06 21:59 | -20.15517 | -1.58914 | 34186 ft | 494 kts | 318° |
| 2026-05-06 22:00 | -20.10139 | -1.63471 | 34181 ft | 494 kts | 319° |
| 2026-05-06 22:00 | -20.04759 | -1.68024 | 34183 ft | 494 kts | 318° |
| 2026-05-06 22:01 | -19.99380 | -1.72573 | 34180 ft | 494 kts | 319° |
| 2026-05-06 22:01 | -19.93993 | -1.77125 | 34179 ft | 494 kts | 319° |
| 2026-05-06 22:02 | -19.88612 | -1.81668 | 34177 ft | 494 kts | 319° |
| 2026-05-06 22:02 | -19.83222 | -1.86214 | 34177 ft | 494 kts | 319° |
| 2026-05-06 22:03 | -19.77835 | -1.90754 | 34168 ft | 494 kts | 319° |
| 2026-05-06 22:03 | -19.72455 | -1.95284 | 34172 ft | 494 kts | 319° |
| 2026-05-06 22:04 | -19.67100 | -1.99788 | 34176 ft | 494 kts | 319° |
| 2026-05-06 22:04 | -19.61708 | -2.04319 | 34172 ft | 494 kts | 319° |
| 2026-05-06 22:05 | -19.56317 | -2.08847 | 34171 ft | 494 kts | 319° |
| 2026-05-06 22:05 | -19.50916 | -2.13378 | 34168 ft | 495 kts | 319° |
| 2026-05-06 22:06 | -19.46421 | -2.17146 | 34170 ft | 495 kts | 319° |
| 2026-05-06 22:06 | -19.40150 | -2.22398 | 34171 ft | 494 kts | 319° |
| 2026-05-06 22:07 | -19.34757 | -2.26911 | 34164 ft | 494 kts | 319° |
| 2026-05-06 22:07 | -19.29361 | -2.31422 | 34166 ft | 493 kts | 319° |
| 2026-05-06 22:08 | -19.24881 | -2.35165 | 34165 ft | 493 kts | 318° |
| 2026-05-06 22:08 | -19.19501 | -2.39655 | 34162 ft | 492 kts | 319° |
| 2026-05-06 22:09 | -19.14126 | -2.44140 | 34163 ft | 491 kts | 319° |
| 2026-05-06 22:09 | -19.08756 | -2.48615 | 34169 ft | 491 kts | 319° |
| 2026-05-06 22:10 | -19.03388 | -2.53084 | 34164 ft | 491 kts | 319° |
| 2026-05-06 22:10 | -18.98055 | -2.57520 | 34149 ft | 491 kts | 319° |
| 2026-05-06 22:11 | -18.92687 | -2.61982 | 34145 ft | 491 kts | 319° |
| 2026-05-06 22:11 | -18.87315 | -2.66443 | 34150 ft | 491 kts | 319° |
| 2026-05-06 22:12 | -18.81945 | -2.70899 | 34159 ft | 491 kts | 319° |
| 2026-05-06 22:12 | -18.76568 | -2.75358 | 34163 ft | 491 kts | 319° |
| 2026-05-06 22:13 | -18.71233 | -2.79778 | 34143 ft | 491 kts | 319° |
| 2026-05-06 22:13 | -18.65860 | -2.84225 | 34141 ft | 490 kts | 319° |
| 2026-05-06 22:14 | -18.60490 | -2.88666 | 34154 ft | 490 kts | 319° |
| 2026-05-06 22:14 | -18.55122 | -2.93103 | 34165 ft | 490 kts | 319° |
| 2026-05-06 22:15 | -18.49746 | -2.97542 | 34153 ft | 490 kts | 319° |
| 2026-05-06 22:15 | -18.44410 | -3.01944 | 34144 ft | 490 kts | 319° |
| 2026-05-06 22:16 | -18.39042 | -3.06369 | 34142 ft | 490 kts | 319° |
| 2026-05-06 22:16 | -18.33666 | -3.10798 | 34141 ft | 490 kts | 319° |
| 2026-05-06 22:17 | -18.28298 | -3.15216 | 34151 ft | 490 kts | 319° |
| 2026-05-06 22:17 | -18.22933 | -3.19627 | 34144 ft | 489 kts | 319° |
| 2026-05-06 22:18 | -18.17566 | -3.24037 | 34146 ft | 489 kts | 319° |
| 2026-05-06 22:18 | -18.12204 | -3.28440 | 34145 ft | 489 kts | 319° |
| 2026-05-06 22:19 | -18.06871 | -3.32815 | 34143 ft | 489 kts | 319° |
| 2026-05-06 22:19 | -18.01502 | -3.37216 | 34140 ft | 489 kts | 319° |
| 2026-05-06 22:20 | -17.96145 | -3.41604 | 34141 ft | 489 kts | 319° |
| 2026-05-06 22:20 | -17.90784 | -3.45991 | 34138 ft | 488 kts | 319° |
| 2026-05-06 22:21 | -17.85419 | -3.50380 | 34142 ft | 488 kts | 319° |
| 2026-05-06 22:21 | -17.80060 | -3.54759 | 34138 ft | 488 kts | 319° |
| 2026-05-06 22:22 | -17.74698 | -3.59137 | 34139 ft | 489 kts | 319° |
| 2026-05-06 22:22 | -17.69333 | -3.63513 | 34130 ft | 488 kts | 319° |
| 2026-05-06 22:23 | -17.64000 | -3.67861 | 34133 ft | 488 kts | 319° |
| 2026-05-06 22:23 | -17.58644 | -3.72224 | 34132 ft | 487 kts | 319° |
| 2026-05-06 22:24 | -17.53290 | -3.76582 | 34130 ft | 487 kts | 319° |
| 2026-05-06 22:24 | -17.47936 | -3.80937 | 34130 ft | 487 kts | 319° |
| 2026-05-06 22:25 | -17.42581 | -3.85290 | 34125 ft | 487 kts | 319° |
| 2026-05-06 22:25 | -17.37230 | -3.89635 | 34130 ft | 486 kts | 319° |
| 2026-05-06 22:26 | -17.31914 | -3.93948 | 34129 ft | 486 kts | 319° |
| 2026-05-06 22:26 | -17.26564 | -3.98287 | 34123 ft | 486 kts | 319° |
| 2026-05-06 22:27 | -17.21223 | -4.02615 | 34123 ft | 486 kts | 319° |
| 2026-05-06 22:27 | -17.15879 | -4.06942 | 34123 ft | 485 kts | 319° |
| 2026-05-06 22:28 | -17.10538 | -4.11263 | 34120 ft | 485 kts | 319° |
| 2026-05-06 22:28 | -17.05194 | -4.15583 | 34120 ft | 485 kts | 319° |
| 2026-05-06 22:29 | -16.99852 | -4.19899 | 34108 ft | 485 kts | 319° |
| 2026-05-06 22:29 | -16.94509 | -4.24212 | 34116 ft | 485 kts | 319° |
| 2026-05-06 22:30 | -16.89198 | -4.28496 | 34120 ft | 485 kts | 319° |
| 2026-05-06 22:30 | -16.83858 | -4.32801 | 34117 ft | 485 kts | 319° |
| 2026-05-06 22:31 | -16.78525 | -4.37097 | 34115 ft | 485 kts | 319° |
| 2026-05-06 22:31 | -16.73183 | -4.41397 | 34114 ft | 484 kts | 319° |
| 2026-05-06 22:32 | -16.67841 | -4.45693 | 34111 ft | 484 kts | 319° |
| 2026-05-06 22:32 | -16.62501 | -4.49986 | 34108 ft | 484 kts | 319° |
| 2026-05-06 22:33 | -16.57160 | -4.54275 | 34110 ft | 484 kts | 319° |
| 2026-05-06 22:33 | -16.51858 | -4.58530 | 34112 ft | 484 kts | 319° |
| 2026-05-06 22:34 | -16.46512 | -4.62818 | 34114 ft | 484 kts | 319° |
| 2026-05-06 22:34 | -16.41173 | -4.67097 | 34106 ft | 484 kts | 319° |
| 2026-05-06 22:35 | -16.35833 | -4.71374 | 34107 ft | 484 kts | 319° |
| 2026-05-06 22:35 | -16.30495 | -4.75646 | 34110 ft | 484 kts | 319° |
| 2026-05-06 22:36 | -16.25151 | -4.79920 | 34107 ft | 484 kts | 319° |
| 2026-05-06 22:36 | -16.19812 | -4.84187 | 34106 ft | 484 kts | 319° |
| 2026-05-06 22:37 | -16.14464 | -4.88459 | 34103 ft | 484 kts | 319° |
| 2026-05-06 22:37 | -16.09163 | -4.92690 | 34102 ft | 484 kts | 319° |
| 2026-05-06 22:38 | -16.03826 | -4.96948 | 34104 ft | 483 kts | 319° |
| 2026-05-06 22:38 | -15.98496 | -5.01216 | 34103 ft | 483 kts | 318° |
| 2026-05-06 22:39 | -15.93306 | -5.05650 | 34092 ft | 482 kts | 317° |
| 2026-05-06 22:39 | -15.88171 | -5.10143 | 34099 ft | 483 kts | 317° |
| 2026-05-06 22:40 | -15.83021 | -5.14619 | 34098 ft | 483 kts | 317° |
| 2026-05-06 22:40 | -15.77849 | -5.19080 | 34103 ft | 483 kts | 317° |
| 2026-05-06 22:41 | -15.70072 | -5.25762 | 34099 ft | 484 kts | 317° |
| 2026-05-06 22:42 | -15.64883 | -5.30218 | 34097 ft | 484 kts | 317° |
| 2026-05-06 22:42 | -15.59692 | -5.34674 | 34095 ft | 484 kts | 317° |
| 2026-05-06 22:43 | -15.54504 | -5.39124 | 34105 ft | 484 kts | 317° |
| 2026-05-06 22:43 | -15.49314 | -5.43573 | 34091 ft | 484 kts | 317° |
| 2026-05-06 22:44 | -15.44158 | -5.47991 | 34085 ft | 483 kts | 317° |
| 2026-05-06 22:44 | -15.38974 | -5.52429 | 34083 ft | 483 kts | 317° |
| 2026-05-06 22:45 | -15.33787 | -5.56867 | 34102 ft | 483 kts | 317° |
| 2026-05-06 22:45 | -15.28603 | -5.61299 | 34101 ft | 483 kts | 317° |
| 2026-05-06 22:46 | -15.23414 | -5.65733 | 34080 ft | 483 kts | 317° |
| 2026-05-06 22:46 | -15.18230 | -5.70159 | 34081 ft | 483 kts | 317° |
| 2026-05-06 22:47 | -15.13075 | -5.74558 | 34095 ft | 483 kts | 317° |
| 2026-05-06 22:47 | -15.07884 | -5.78984 | 34099 ft | 483 kts | 317° |
| 2026-05-06 22:48 | -15.02696 | -5.83405 | 34083 ft | 483 kts | 317° |
| 2026-05-06 22:48 | -14.97504 | -5.87828 | 34080 ft | 483 kts | 317° |
| 2026-05-06 22:49 | -14.92309 | -5.92248 | 34081 ft | 483 kts | 317° |
| 2026-05-06 22:49 | -14.87145 | -5.96641 | 34103 ft | 483 kts | 317° |
| 2026-05-06 22:50 | -14.81953 | -6.01054 | 34090 ft | 483 kts | 317° |
| 2026-05-06 22:50 | -14.76744 | -6.05478 | 34087 ft | 484 kts | 317° |
| 2026-05-06 22:51 | -14.71531 | -6.09904 | 34089 ft | 485 kts | 317° |
| 2026-05-06 22:51 | -14.66304 | -6.14338 | 34083 ft | 486 kts | 317° |
| 2026-05-06 22:52 | -14.61076 | -6.18771 | 34083 ft | 486 kts | 317° |
| 2026-05-06 22:52 | -14.55844 | -6.23203 | 34079 ft | 486 kts | 317° |
| 2026-05-06 22:53 | -14.50617 | -6.27630 | 34079 ft | 486 kts | 317° |
| 2026-05-06 22:53 | -14.45388 | -6.32055 | 34076 ft | 486 kts | 317° |
| 2026-05-06 22:54 | -14.40195 | -6.36446 | 34079 ft | 486 kts | 317° |
| 2026-05-06 22:54 | -14.34964 | -6.40867 | 34075 ft | 486 kts | 317° |
| 2026-05-06 22:55 | -14.29730 | -6.45287 | 34075 ft | 486 kts | 317° |
| 2026-05-06 22:55 | -14.24494 | -6.49707 | 34073 ft | 486 kts | 317° |
| 2026-05-06 22:56 | -14.19249 | -6.54132 | 34075 ft | 487 kts | 317° |
| 2026-05-06 22:56 | -14.14888 | -6.57808 | 34075 ft | 487 kts | 317° |
| 2026-05-06 22:57 | -14.09642 | -6.62229 | 34067 ft | 488 kts | 317° |
| 2026-05-06 22:57 | -14.04377 | -6.66663 | 34079 ft | 488 kts | 317° |
| 2026-05-06 22:58 | -13.99113 | -6.71093 | 34074 ft | 489 kts | 317° |
| 2026-05-06 22:58 | -13.93840 | -6.75527 | 34076 ft | 489 kts | 317° |
| 2026-05-06 22:59 | -13.88569 | -6.79958 | 34076 ft | 489 kts | 317° |
| 2026-05-06 22:59 | -13.83285 | -6.84397 | 34070 ft | 489 kts | 317° |
| 2026-05-06 23:00 | -13.78042 | -6.88799 | 34072 ft | 489 kts | 317° |
| 2026-05-06 23:00 | -13.72764 | -6.93227 | 34069 ft | 489 kts | 317° |
| 2026-05-06 23:01 | -13.67490 | -6.97650 | 34075 ft | 489 kts | 317° |
| 2026-05-06 23:01 | -13.62209 | -7.02075 | 34070 ft | 489 kts | 317° |
| 2026-05-06 23:02 | -13.56933 | -7.06494 | 34071 ft | 489 kts | 317° |
| 2026-05-06 23:02 | -13.51656 | -7.10911 | 34068 ft | 489 kts | 317° |
| 2026-05-06 23:03 | -13.46377 | -7.15327 | 34068 ft | 489 kts | 317° |
| 2026-05-06 23:03 | -13.41095 | -7.19743 | 34068 ft | 489 kts | 317° |
| 2026-05-06 23:04 | -13.35847 | -7.24129 | 34064 ft | 489 kts | 318° |
| 2026-05-06 23:04 | -13.30564 | -7.28540 | 34066 ft | 489 kts | 318° |
| 2026-05-06 23:05 | -13.25280 | -7.32950 | 34065 ft | 490 kts | 318° |
| 2026-05-06 23:05 | -13.19988 | -7.37364 | 34063 ft | 490 kts | 318° |
| 2026-05-06 23:06 | -13.14700 | -7.41772 | 34063 ft | 490 kts | 318° |
| 2026-05-06 23:06 | -13.09405 | -7.46184 | 34062 ft | 490 kts | 318° |
| 2026-05-06 23:07 | -13.04110 | -7.50593 | 34063 ft | 490 kts | 318° |
| 2026-05-06 23:07 | -12.98814 | -7.55001 | 34058 ft | 490 kts | 318° |
| 2026-05-06 23:08 | -12.93514 | -7.59409 | 34064 ft | 491 kts | 318° |
| 2026-05-06 23:08 | -12.88212 | -7.63816 | 34063 ft | 491 kts | 318° |
| 2026-05-06 23:09 | -12.82907 | -7.68224 | 34064 ft | 491 kts | 318° |
| 2026-05-06 23:09 | -12.77633 | -7.72603 | 34058 ft | 491 kts | 318° |
| 2026-05-06 23:10 | -12.72323 | -7.77009 | 34053 ft | 491 kts | 318° |
| 2026-05-06 23:10 | -12.67024 | -7.81404 | 34057 ft | 490 kts | 318° |
| 2026-05-06 23:11 | -12.61720 | -7.85801 | 34055 ft | 490 kts | 318° |
| 2026-05-06 23:11 | -12.56412 | -7.90198 | 34054 ft | 490 kts | 318° |
| 2026-05-06 23:12 | -12.51110 | -7.94589 | 34056 ft | 490 kts | 319° |
| 2026-05-06 23:12 | -12.45800 | -7.98984 | 34058 ft | 490 kts | 319° |
| 2026-05-06 23:13 | -12.40525 | -8.03347 | 34058 ft | 490 kts | 318° |
| 2026-05-06 23:13 | -12.35217 | -8.07736 | 34053 ft | 490 kts | 318° |
| 2026-05-06 23:14 | -12.29908 | -8.12122 | 34052 ft | 491 kts | 319° |
| 2026-05-06 23:14 | -12.24592 | -8.16513 | 34046 ft | 491 kts | 319° |
| 2026-05-06 23:15 | -12.19274 | -8.20901 | 34051 ft | 491 kts | 318° |
| 2026-05-06 23:15 | -12.13956 | -8.25288 | 34049 ft | 491 kts | 319° |
| 2026-05-06 23:16 | -12.08645 | -8.29668 | 34050 ft | 491 kts | 319° |
| 2026-05-06 23:16 | -12.03362 | -8.34021 | 34049 ft | 491 kts | 319° |
| 2026-05-06 23:17 | -11.98043 | -8.38401 | 34050 ft | 491 kts | 319° |
| 2026-05-06 23:17 | -11.92734 | -8.42772 | 34050 ft | 490 kts | 318° |
| 2026-05-06 23:18 | -11.87427 | -8.47138 | 34039 ft | 489 kts | 319° |
| 2026-05-06 23:18 | -11.82125 | -8.51498 | 34045 ft | 489 kts | 319° |
| 2026-05-06 23:19 | -11.76824 | -8.55855 | 34057 ft | 489 kts | 319° |
| 2026-05-06 23:19 | -11.71520 | -8.60213 | 34047 ft | 489 kts | 319° |
| 2026-05-06 23:20 | -11.66216 | -8.64568 | 34039 ft | 489 kts | 319° |
| 2026-05-06 23:20 | -11.60910 | -8.68922 | 34039 ft | 490 kts | 319° |
| 2026-05-06 23:21 | -11.55599 | -8.73279 | 34050 ft | 490 kts | 319° |
| 2026-05-06 23:21 | -11.50326 | -8.77602 | 34039 ft | 490 kts | 319° |
| 2026-05-06 23:22 | -11.45020 | -8.81951 | 34038 ft | 489 kts | 319° |
| 2026-05-06 23:22 | -11.39711 | -8.86299 | 34034 ft | 489 kts | 319° |
| 2026-05-06 23:23 | -11.34407 | -8.90639 | 34041 ft | 489 kts | 319° |
| 2026-05-06 23:23 | -11.29098 | -8.94983 | 34041 ft | 489 kts | 319° |
| 2026-05-06 23:24 | -11.23799 | -8.99318 | 34035 ft | 488 kts | 319° |
| 2026-05-06 23:24 | -11.18532 | -9.03624 | 34040 ft | 489 kts | 319° |
| 2026-05-06 23:25 | -11.13230 | -9.07957 | 34037 ft | 489 kts | 319° |
| 2026-05-06 23:25 | -11.07930 | -9.12285 | 34044 ft | 488 kts | 319° |
| 2026-05-06 23:26 | -11.02627 | -9.16614 | 34033 ft | 487 kts | 319° |
| 2026-05-06 23:26 | -10.97335 | -9.20933 | 34033 ft | 487 kts | 319° |
| 2026-05-06 23:27 | -10.92045 | -9.25245 | 34032 ft | 487 kts | 319° |
| 2026-05-06 23:27 | -10.86752 | -9.29559 | 34035 ft | 487 kts | 319° |
| 2026-05-06 23:28 | -10.81463 | -9.33868 | 34030 ft | 487 kts | 319° |
| 2026-05-06 23:28 | -10.76166 | -9.38181 | 34029 ft | 488 kts | 319° |
| 2026-05-06 23:29 | -10.70871 | -9.42492 | 34026 ft | 488 kts | 319° |
| 2026-05-06 23:29 | -10.65574 | -9.46801 | 34023 ft | 487 kts | 319° |
| 2026-05-06 23:30 | -10.60281 | -9.51105 | 34028 ft | 486 kts | 319° |
| 2026-05-06 23:30 | -10.55031 | -9.55373 | 34023 ft | 486 kts | 319° |
| 2026-05-06 23:31 | -10.49751 | -9.59664 | 34026 ft | 486 kts | 319° |
| 2026-05-06 23:31 | -10.44479 | -9.63945 | 34024 ft | 485 kts | 319° |
| 2026-05-06 23:32 | -10.39230 | -9.68207 | 34020 ft | 485 kts | 320° |
| 2026-05-06 23:32 | -10.33947 | -9.72494 | 34033 ft | 486 kts | 319° |
| 2026-05-06 23:33 | -10.28653 | -9.76788 | 34034 ft | 487 kts | 319° |
| 2026-05-06 23:33 | -10.23358 | -9.81080 | 34017 ft | 487 kts | 319° |
| 2026-05-06 23:34 | -10.18069 | -9.85367 | 34020 ft | 486 kts | 320° |
| 2026-05-06 23:34 | -10.12777 | -9.89654 | 34030 ft | 486 kts | 319° |
| 2026-05-06 23:35 | -10.07492 | -9.93934 | 34031 ft | 485 kts | 319° |
| 2026-05-06 23:35 | -10.02224 | -9.98199 | 34010 ft | 484 kts | 320° |
| 2026-05-06 23:36 | -9.97202 | -10.02735 | 34025 ft | 483 kts | 313° |
| 2026-05-06 23:36 | -9.92505 | -10.07561 | 34009 ft | 485 kts | 313° |
| 2026-05-06 23:37 | -9.87772 | -10.12429 | 34019 ft | 485 kts | 313° |
| 2026-05-06 23:37 | -9.83013 | -10.17292 | 34016 ft | 485 kts | 313° |
| 2026-05-06 23:38 | -9.78257 | -10.22133 | 34026 ft | 483 kts | 313° |
| 2026-05-06 23:38 | -9.73514 | -10.26955 | 34011 ft | 482 kts | 313° |
| 2026-05-06 23:39 | -9.68773 | -10.31772 | 34020 ft | 482 kts | 313° |
| 2026-05-06 23:39 | -9.64032 | -10.36591 | 34004 ft | 484 kts | 314° |
| 2026-05-06 23:40 | -9.59287 | -10.41411 | 34014 ft | 487 kts | 314° |
| 2026-05-06 23:40 | -9.54498 | -10.46272 | 34002 ft | 488 kts | 314° |
| 2026-05-06 23:41 | -9.49698 | -10.51143 | 34014 ft | 487 kts | 313° |
| 2026-05-06 23:41 | -9.44909 | -10.56001 | 34016 ft | 486 kts | 313° |
| 2026-05-06 23:42 | -9.40143 | -10.60835 | 34008 ft | 485 kts | 314° |
| 2026-05-06 23:42 | -9.35385 | -10.65658 | 34005 ft | 483 kts | 313° |
| 2026-05-06 23:43 | -9.30624 | -10.70482 | 34008 ft | 485 kts | 314° |
| 2026-05-06 23:43 | -9.25848 | -10.75319 | 34014 ft | 487 kts | 314° |
| 2026-05-06 23:44 | -9.21052 | -10.80174 | 34013 ft | 488 kts | 314° |
| 2026-05-06 23:44 | -9.16247 | -10.85035 | 34007 ft | 489 kts | 314° |
| 2026-05-06 23:45 | -9.12253 | -10.89076 | 34003 ft | 488 kts | 314° |
| 2026-05-06 23:45 | -9.07453 | -10.93930 | 34006 ft | 488 kts | 314° |
| 2026-05-06 23:46 | -9.01883 | -10.99559 | 34006 ft | 486 kts | 314° |
| 2026-05-06 23:46 | -8.97878 | -11.03607 | 33999 ft | 486 kts | 314° |
| 2026-05-06 23:47 | -8.93130 | -11.08402 | 34010 ft | 485 kts | 314° |
| 2026-05-06 23:47 | -8.88349 | -11.13230 | 34009 ft | 486 kts | 314° |
| 2026-05-06 23:48 | -8.83553 | -11.18069 | 34014 ft | 487 kts | 314° |
| 2026-05-06 23:48 | -8.78738 | -11.22926 | 34002 ft | 488 kts | 314° |
| 2026-05-06 23:49 | -8.73948 | -11.27756 | 34015 ft | 489 kts | 314° |
| 2026-05-06 23:49 | -8.69120 | -11.32623 | 34009 ft | 490 kts | 315° |
| 2026-05-06 23:50 | -8.64288 | -11.37492 | 34001 ft | 490 kts | 315° |
| 2026-05-06 23:50 | -8.57066 | -11.44766 | 34012 ft | 487 kts | 314° |
| 2026-05-06 23:51 | -8.52271 | -11.49592 | 33998 ft | 486 kts | 315° |
| 2026-05-06 23:51 | -8.47486 | -11.54407 | 33997 ft | 486 kts | 315° |
| 2026-05-06 23:52 | -8.42717 | -11.59206 | 34007 ft | 488 kts | 315° |
| 2026-05-06 23:52 | -8.37897 | -11.64052 | 33995 ft | 490 kts | 315° |
| 2026-05-06 23:53 | -8.33047 | -11.68928 | 34013 ft | 492 kts | 315° |
| 2026-05-06 23:53 | -8.28191 | -11.73807 | 33994 ft | 493 kts | 315° |
| 2026-05-06 23:54 | -8.23338 | -11.78682 | 34004 ft | 491 kts | 315° |
| 2026-05-06 23:54 | -8.18501 | -11.83538 | 34000 ft | 489 kts | 315° |
| 2026-05-06 23:55 | -8.13679 | -11.88378 | 34001 ft | 489 kts | 315° |
| 2026-05-06 23:55 | -8.08857 | -11.93217 | 33993 ft | 489 kts | 315° |
| 2026-05-06 23:56 | -8.04026 | -11.98062 | 33993 ft | 490 kts | 315° |
| 2026-05-06 23:56 | -7.99187 | -12.02914 | 34004 ft | 490 kts | 315° |
| 2026-05-06 23:57 | -7.94373 | -12.07738 | 34006 ft | 490 kts | 315° |
| 2026-05-06 23:57 | -7.89538 | -12.12583 | 33996 ft | 488 kts | 316° |
| 2026-05-06 23:58 | -7.84726 | -12.17402 | 33988 ft | 487 kts | 315° |
| 2026-05-06 23:58 | -7.79922 | -12.22213 | 33991 ft | 487 kts | 316° |
| 2026-05-06 23:59 | -7.75105 | -12.27033 | 33999 ft | 488 kts | 315° |
| 2026-05-06 23:59 | -7.70283 | -12.31858 | 33998 ft | 489 kts | 316° |
| 2026-05-07 00:00 | -7.65451 | -12.36690 | 33990 ft | 489 kts | 315° |
| 2026-05-07 00:00 | -7.60645 | -12.41497 | 33998 ft | 488 kts | 316° |
| 2026-05-07 00:01 | -7.55833 | -12.46306 | 33988 ft | 487 kts | 315° |
| 2026-05-07 00:01 | -7.51012 | -12.51123 | 33999 ft | 486 kts | 316° |
| 2026-05-07 00:02 | -7.46210 | -12.55920 | 33989 ft | 487 kts | 315° |
| 2026-05-07 00:02 | -7.41394 | -12.60729 | 34005 ft | 488 kts | 316° |
| 2026-05-07 00:03 | -7.36561 | -12.65554 | 34002 ft | 490 kts | 316° |
| 2026-05-07 00:03 | -7.31707 | -12.70398 | 34004 ft | 491 kts | 316° |
| 2026-05-07 00:04 | -7.26847 | -12.75245 | 33982 ft | 492 kts | 316° |
| 2026-05-07 00:04 | -7.22011 | -12.80067 | 33988 ft | 492 kts | 316° |
| 2026-05-07 00:05 | -7.17126 | -12.84938 | 33990 ft | 491 kts | 316° |
| 2026-05-07 00:05 | -7.12306 | -12.89742 | 33993 ft | 491 kts | 316° |
| 2026-05-07 00:06 | -7.07455 | -12.94575 | 33990 ft | 490 kts | 316° |
| 2026-05-07 00:06 | -7.02604 | -12.99407 | 33989 ft | 490 kts | 316° |
| 2026-05-07 00:07 | -6.97759 | -13.04231 | 34000 ft | 489 kts | 316° |
| 2026-05-07 00:07 | -6.92912 | -13.09055 | 33986 ft | 490 kts | 316° |
| 2026-05-07 00:08 | -6.88067 | -13.13876 | 34000 ft | 490 kts | 316° |
| 2026-05-07 00:08 | -6.83206 | -13.18711 | 33996 ft | 491 kts | 316° |
| 2026-05-07 00:09 | -6.78336 | -13.23555 | 33983 ft | 492 kts | 316° |
| 2026-05-07 00:09 | -6.73466 | -13.28397 | 33980 ft | 492 kts | 316° |
| 2026-05-07 00:10 | -6.68597 | -13.33236 | 33982 ft | 492 kts | 316° |
| 2026-05-07 00:10 | -6.63732 | -13.38069 | 33979 ft | 491 kts | 316° |
| 2026-05-07 00:11 | -6.58868 | -13.42900 | 33988 ft | 491 kts | 316° |
| 2026-05-07 00:11 | -6.54043 | -13.47691 | 33980 ft | 491 kts | 316° |
| 2026-05-07 00:12 | -6.49180 | -13.52520 | 33993 ft | 492 kts | 316° |
| 2026-05-07 00:12 | -6.44304 | -13.57360 | 33986 ft | 492 kts | 316° |
| 2026-05-07 00:13 | -6.39437 | -13.62189 | 33987 ft | 491 kts | 316° |
| 2026-05-07 00:13 | -6.34567 | -13.67018 | 33975 ft | 491 kts | 317° |
| 2026-05-07 00:14 | -6.29701 | -13.71842 | 33977 ft | 491 kts | 316° |
| 2026-05-07 00:14 | -6.24840 | -13.76663 | 33974 ft | 491 kts | 317° |
| 2026-05-07 00:15 | -6.19967 | -13.81491 | 33984 ft | 492 kts | 316° |
| 2026-05-07 00:15 | -6.15088 | -13.86326 | 33992 ft | 493 kts | 316° |
| 2026-05-07 00:16 | -6.10201 | -13.91165 | 33980 ft | 493 kts | 317° |
| 2026-05-07 00:16 | -6.05312 | -13.96007 | 33980 ft | 493 kts | 317° |
| 2026-05-07 00:17 | -6.00460 | -14.00809 | 33971 ft | 493 kts | 317° |
| 2026-05-07 00:17 | -5.95577 | -14.05644 | 33980 ft | 492 kts | 316° |
| 2026-05-07 00:18 | -5.90689 | -14.10480 | 33985 ft | 492 kts | 317° |
| 2026-05-07 00:18 | -5.85800 | -14.15317 | 33980 ft | 493 kts | 317° |
| 2026-05-07 00:19 | -5.80899 | -14.20161 | 33979 ft | 495 kts | 317° |
| 2026-05-07 00:19 | -5.75999 | -14.25007 | 33982 ft | 495 kts | 317° |
| 2026-05-07 00:20 | -5.71091 | -14.29858 | 33970 ft | 495 kts | 316° |
| 2026-05-07 00:20 | -5.66219 | -14.34672 | 33976 ft | 494 kts | 317° |
| 2026-05-07 00:21 | -5.61317 | -14.39514 | 33970 ft | 494 kts | 316° |
| 2026-05-07 00:21 | -5.56415 | -14.44358 | 33978 ft | 494 kts | 317° |
| 2026-05-07 00:22 | -5.51518 | -14.49192 | 33969 ft | 494 kts | 316° |
| 2026-05-07 00:22 | -5.46611 | -14.54036 | 33976 ft | 495 kts | 317° |
| 2026-05-07 00:23 | -5.41697 | -14.58886 | 33973 ft | 495 kts | 317° |
| 2026-05-07 00:23 | -5.36787 | -14.63730 | 33973 ft | 495 kts | 317° |
| 2026-05-07 00:24 | -5.31899 | -14.68552 | 33967 ft | 496 kts | 316° |
| 2026-05-07 00:24 | -5.26980 | -14.73405 | 33974 ft | 496 kts | 317° |
| 2026-05-07 00:25 | -5.22057 | -14.78259 | 33968 ft | 496 kts | 317° |
| 2026-05-07 00:25 | -5.17139 | -14.83109 | 33975 ft | 495 kts | 317° |
| 2026-05-07 00:26 | -5.12226 | -14.87949 | 33960 ft | 495 kts | 317° |
| 2026-05-07 00:26 | -5.07314 | -14.92791 | 33969 ft | 495 kts | 317° |
| 2026-05-07 00:27 | -5.02400 | -14.97634 | 33969 ft | 495 kts | 317° |
| 2026-05-07 00:27 | -4.97492 | -15.02489 | 33970 ft | 496 kts | 316° |
| 2026-05-07 00:28 | -4.92623 | -15.07394 | 33966 ft | 496 kts | 317° |
| 2026-05-07 00:28 | -4.87770 | -15.12302 | 33969 ft | 495 kts | 317° |
| 2026-05-07 00:29 | -4.82941 | -15.17175 | 33966 ft | 495 kts | 317° |
| 2026-05-07 00:30 | -4.73211 | -15.26970 | 33965 ft | 495 kts | 316° |
| 2026-05-07 00:30 | -4.68341 | -15.31870 | 33965 ft | 496 kts | 316° |
| 2026-05-07 00:31 | -4.63465 | -15.36777 | 33967 ft | 497 kts | 317° |
| 2026-05-07 00:31 | -4.58584 | -15.41687 | 33959 ft | 497 kts | 317° |
| 2026-05-07 00:32 | -4.54525 | -15.45769 | 33965 ft | 497 kts | 316° |
| 2026-05-07 00:32 | -4.48842 | -15.51482 | 33965 ft | 497 kts | 316° |
| 2026-05-07 00:33 | -4.43962 | -15.56389 | 33963 ft | 497 kts | 317° |
| 2026-05-07 00:33 | -4.39876 | -15.60495 | 33957 ft | 497 kts | 316° |
| 2026-05-07 00:34 | -4.34987 | -15.65408 | 33961 ft | 497 kts | 316° |
| 2026-05-07 00:34 | -4.30113 | -15.70308 | 33959 ft | 496 kts | 317° |
| 2026-05-07 00:35 | -4.25267 | -15.75173 | 33962 ft | 496 kts | 317° |
| 2026-05-07 00:35 | -4.20398 | -15.80064 | 33960 ft | 495 kts | 317° |
| 2026-05-07 00:36 | -4.15529 | -15.84953 | 33958 ft | 495 kts | 316° |
| 2026-05-07 00:36 | -4.10658 | -15.89844 | 33959 ft | 495 kts | 316° |
| 2026-05-07 00:37 | -4.05784 | -15.94736 | 33960 ft | 495 kts | 316° |
| 2026-05-07 00:37 | -4.00945 | -15.99593 | 33961 ft | 495 kts | 316° |
| 2026-05-07 00:38 | -3.96077 | -16.04478 | 33959 ft | 496 kts | 317° |
| 2026-05-07 00:38 | -3.91204 | -16.09367 | 33961 ft | 496 kts | 317° |
| 2026-05-07 00:39 | -3.86330 | -16.14256 | 33954 ft | 496 kts | 317° |
| 2026-05-07 00:39 | -3.81457 | -16.19143 | 33959 ft | 495 kts | 316° |
| 2026-05-07 00:40 | -3.76586 | -16.24026 | 33956 ft | 496 kts | 316° |
| 2026-05-07 00:40 | -3.71717 | -16.28909 | 33961 ft | 496 kts | 316° |
| 2026-05-07 00:41 | -3.66847 | -16.33791 | 33960 ft | 496 kts | 316° |
| 2026-05-07 00:41 | -3.61972 | -16.38677 | 33957 ft | 496 kts | 317° |
| 2026-05-07 00:42 | -3.57125 | -16.43534 | 33961 ft | 496 kts | 317° |
| 2026-05-07 00:42 | -3.52248 | -16.48420 | 33958 ft | 496 kts | 317° |
| 2026-05-07 00:43 | -3.47371 | -16.53306 | 33954 ft | 496 kts | 316° |
| 2026-05-07 00:43 | -3.42482 | -16.58202 | 33957 ft | 496 kts | 316° |
| 2026-05-07 00:44 | -3.37596 | -16.63096 | 33957 ft | 496 kts | 316° |
| 2026-05-07 00:44 | -3.32736 | -16.67963 | 33956 ft | 497 kts | 317° |
| 2026-05-07 00:45 | -3.27857 | -16.72848 | 33956 ft | 497 kts | 317° |
| 2026-05-07 00:45 | -3.22964 | -16.77744 | 33959 ft | 497 kts | 317° |
| 2026-05-07 00:46 | -3.18067 | -16.82646 | 33960 ft | 498 kts | 316° |
| 2026-05-07 00:46 | -3.13166 | -16.87551 | 33957 ft | 498 kts | 317° |
| 2026-05-07 00:47 | -3.08262 | -16.92459 | 33957 ft | 499 kts | 316° |
| 2026-05-07 00:47 | -3.03353 | -16.97370 | 33955 ft | 499 kts | 317° |
| 2026-05-07 00:48 | -2.98473 | -17.02251 | 33956 ft | 499 kts | 317° |
| 2026-05-07 00:48 | -2.93566 | -17.07158 | 33955 ft | 499 kts | 317° |
| 2026-05-07 00:49 | -2.88656 | -17.12069 | 33954 ft | 499 kts | 317° |
| 2026-05-07 00:49 | -2.83734 | -17.16990 | 33961 ft | 500 kts | 316° |
| 2026-05-07 00:50 | -2.78817 | -17.21907 | 33956 ft | 500 kts | 316° |
| 2026-05-07 00:50 | -2.73885 | -17.26837 | 33959 ft | 501 kts | 317° |
| 2026-05-07 00:51 | -2.68975 | -17.31745 | 33961 ft | 501 kts | 316° |
| 2026-05-07 00:51 | -2.64048 | -17.36670 | 33959 ft | 501 kts | 317° |
| 2026-05-07 00:52 | -2.59119 | -17.41595 | 33959 ft | 501 kts | 316° |
| 2026-05-07 00:52 | -2.54191 | -17.46519 | 33958 ft | 501 kts | 316° |
| 2026-05-07 00:53 | -2.49267 | -17.51438 | 33956 ft | 500 kts | 316° |
| 2026-05-07 00:53 | -2.44337 | -17.56363 | 33958 ft | 501 kts | 316° |
| 2026-05-07 00:54 | -2.39410 | -17.61284 | 33964 ft | 501 kts | 316° |
| 2026-05-07 00:54 | -2.34480 | -17.66208 | 33965 ft | 501 kts | 316° |
| 2026-05-07 00:55 | -2.29546 | -17.71136 | 33958 ft | 501 kts | 316° |
| 2026-05-07 00:55 | -2.24650 | -17.76024 | 33960 ft | 501 kts | 316° |
| 2026-05-07 00:56 | -2.19713 | -17.80954 | 33958 ft | 501 kts | 316° |
| 2026-05-07 00:56 | -2.14779 | -17.85879 | 33956 ft | 501 kts | 316° |
| 2026-05-07 00:57 | -2.09846 | -17.90803 | 33965 ft | 502 kts | 316° |
| 2026-05-07 00:57 | -2.04905 | -17.95735 | 33960 ft | 502 kts | 316° |
| 2026-05-07 00:58 | -1.99952 | -18.00679 | 33960 ft | 502 kts | 316° |
| 2026-05-07 00:58 | -1.95005 | -18.05616 | 33955 ft | 502 kts | 316° |
| 2026-05-07 00:59 | -1.87619 | -18.12986 | 33956 ft | 503 kts | 316° |
| 2026-05-07 01:00 | -1.82665 | -18.17929 | 33958 ft | 503 kts | 316° |
| 2026-05-07 01:00 | -1.77702 | -18.22881 | 33954 ft | 505 kts | 316° |
| 2026-05-07 01:01 | -1.72721 | -18.27850 | 33962 ft | 506 kts | 316° |
| 2026-05-07 01:01 | -1.67734 | -18.32824 | 33963 ft | 507 kts | 316° |
| 2026-05-07 01:02 | -1.62729 | -18.37816 | 33958 ft | 508 kts | 316° |
| 2026-05-07 01:02 | -1.57761 | -18.42771 | 33954 ft | 507 kts | 316° |
| 2026-05-07 01:03 | -1.52758 | -18.47761 | 33960 ft | 507 kts | 316° |
| 2026-05-07 01:03 | -1.47775 | -18.52730 | 33954 ft | 505 kts | 316° |
| 2026-05-07 01:04 | -1.42802 | -18.57690 | 33957 ft | 504 kts | 316° |
| 2026-05-07 01:04 | -1.37849 | -18.62629 | 33953 ft | 501 kts | 316° |
| 2026-05-07 01:05 | -1.32917 | -18.67545 | 33954 ft | 499 kts | 316° |
| 2026-05-07 01:05 | -1.28035 | -18.72413 | 33953 ft | 498 kts | 316° |
| 2026-05-07 01:06 | -1.23130 | -18.77302 | 33959 ft | 498 kts | 316° |
| 2026-05-07 01:06 | -1.18216 | -18.82201 | 33956 ft | 498 kts | 316° |
| 2026-05-07 01:07 | -1.13302 | -18.87099 | 33959 ft | 499 kts | 316° |
| 2026-05-07 01:07 | -1.08379 | -18.92005 | 33955 ft | 500 kts | 316° |
| 2026-05-07 01:08 | -1.03451 | -18.96917 | 33953 ft | 501 kts | 316° |
| 2026-05-07 01:08 | -0.98505 | -19.01847 | 33957 ft | 503 kts | 316° |
| 2026-05-07 01:09 | -0.93583 | -19.06753 | 33956 ft | 504 kts | 316° |
| 2026-05-07 01:09 | -0.88615 | -19.11703 | 33956 ft | 504 kts | 316° |
| 2026-05-07 01:10 | -0.83643 | -19.16659 | 33953 ft | 505 kts | 316° |
| 2026-05-07 01:10 | -0.78669 | -19.21616 | 33953 ft | 505 kts | 316° |
| 2026-05-07 01:11 | -0.73696 | -19.26571 | 33955 ft | 505 kts | 316° |
| 2026-05-07 01:11 | -0.68725 | -19.31524 | 33952 ft | 505 kts | 316° |
| 2026-05-07 01:12 | -0.63741 | -19.36490 | 33952 ft | 505 kts | 316° |
| 2026-05-07 01:12 | -0.58761 | -19.41452 | 33948 ft | 506 kts | 316° |
| 2026-05-07 01:13 | -0.53779 | -19.46416 | 33948 ft | 506 kts | 316° |
| 2026-05-07 01:13 | -0.48827 | -19.51350 | 33953 ft | 506 kts | 316° |
| 2026-05-07 01:14 | -0.43840 | -19.56319 | 33950 ft | 506 kts | 316° |
| 2026-05-07 01:14 | -0.38857 | -19.61283 | 33949 ft | 506 kts | 316° |
| 2026-05-07 01:15 | -0.33872 | -19.66250 | 33950 ft | 506 kts | 316° |
| 2026-05-07 01:15 | -0.28893 | -19.71210 | 33952 ft | 506 kts | 316° |
| 2026-05-07 01:16 | -0.23906 | -19.76178 | 33948 ft | 505 kts | 316° |
| 2026-05-07 01:16 | -0.18924 | -19.81142 | 33947 ft | 505 kts | 316° |
| 2026-05-07 01:17 | -0.13983 | -19.86065 | 33949 ft | 505 kts | 316° |
| 2026-05-07 01:17 | -0.09002 | -19.91028 | 33944 ft | 505 kts | 316° |
| 2026-05-07 01:18 | -0.04031 | -19.95982 | 33947 ft | 504 kts | 316° |
| 2026-05-07 01:18 | 0.00935 | -20.00938 | 33947 ft | 505 kts | 315° |
| 2026-05-07 01:19 | 0.05767 | -20.05982 | 33946 ft | 506 kts | 314° |
| 2026-05-07 01:19 | 0.09803 | -20.10287 | 33947 ft | 506 kts | 314° |
| 2026-05-07 01:20 | 0.15417 | -20.16259 | 34185 ft | 507 kts | 314° |
| 2026-05-07 01:20 | 0.17826 | -20.18809 | 34603 ft | 502 kts | 314° |
| 2026-05-07 01:20 | 0.20215 | -20.21333 | 35011 ft | 498 kts | 314° |
| 2026-05-07 01:20 | 0.22590 | -20.23839 | 35405 ft | 495 kts | 314° |
| 2026-05-07 01:21 | 0.24952 | -20.26332 | 35695 ft | 493 kts | 314° |
| 2026-05-07 01:21 | 0.26517 | -20.27982 | 35832 ft | 494 kts | 314° |
| 2026-05-07 01:21 | 0.28882 | -20.30478 | 35879 ft | 496 kts | 314° |
| 2026-05-07 01:22 | 0.33633 | -20.35489 | 35940 ft | 495 kts | 314° |
| 2026-05-07 01:22 | 0.38353 | -20.40472 | 35940 ft | 493 kts | 314° |
| 2026-05-07 01:23 | 0.43058 | -20.45439 | 35946 ft | 491 kts | 314° |
| 2026-05-07 01:23 | 0.47750 | -20.50392 | 35950 ft | 490 kts | 314° |
| 2026-05-07 01:24 | 0.52435 | -20.55337 | 35943 ft | 490 kts | 314° |
| 2026-05-07 01:24 | 0.57118 | -20.60280 | 35947 ft | 490 kts | 314° |
| 2026-05-07 01:25 | 0.61801 | -20.65224 | 35952 ft | 490 kts | 314° |
| 2026-05-07 01:25 | 0.66468 | -20.70150 | 35946 ft | 491 kts | 314° |
| 2026-05-07 01:26 | 0.71166 | -20.75110 | 35944 ft | 492 kts | 314° |
| 2026-05-07 01:26 | 0.75871 | -20.80077 | 35948 ft | 492 kts | 314° |
| 2026-05-07 01:27 | 0.80573 | -20.85041 | 35941 ft | 492 kts | 313° |
| 2026-05-07 01:27 | 0.85278 | -20.90009 | 35941 ft | 492 kts | 313° |
| 2026-05-07 01:28 | 0.89980 | -20.94974 | 35947 ft | 492 kts | 313° |
| 2026-05-07 01:28 | 0.94689 | -20.99946 | 35947 ft | 492 kts | 313° |
| 2026-05-07 01:29 | 0.99394 | -21.04914 | 35947 ft | 492 kts | 313° |
| 2026-05-07 01:29 | 1.04065 | -21.09846 | 35948 ft | 491 kts | 313° |
| 2026-05-07 01:30 | 1.08759 | -21.14803 | 35961 ft | 490 kts | 313° |
| 2026-05-07 01:30 | 1.13436 | -21.19743 | 35948 ft | 488 kts | 313° |
| 2026-05-07 01:31 | 1.18095 | -21.24664 | 35941 ft | 486 kts | 313° |
| 2026-05-07 01:31 | 1.22739 | -21.29569 | 35939 ft | 485 kts | 313° |
| 2026-05-07 01:32 | 1.27368 | -21.34458 | 35949 ft | 484 kts | 313° |
| 2026-05-07 01:32 | 1.31993 | -21.39344 | 35940 ft | 483 kts | 313° |
| 2026-05-07 01:33 | 1.36615 | -21.44226 | 35951 ft | 483 kts | 313° |
| 2026-05-07 01:33 | 1.41211 | -21.49081 | 35941 ft | 484 kts | 313° |
| 2026-05-07 01:34 | 1.45841 | -21.53972 | 35941 ft | 486 kts | 314° |
| 2026-05-07 01:34 | 1.50504 | -21.58898 | 35955 ft | 489 kts | 314° |
| 2026-05-07 01:35 | 1.55188 | -21.63847 | 35951 ft | 491 kts | 314° |
| 2026-05-07 01:35 | 1.59897 | -21.68824 | 35955 ft | 493 kts | 314° |
| 2026-05-07 01:36 | 1.64613 | -21.73808 | 35945 ft | 493 kts | 314° |
| 2026-05-07 01:36 | 1.69327 | -21.78790 | 35950 ft | 493 kts | 314° |
| 2026-05-07 01:37 | 1.74035 | -21.83767 | 35937 ft | 492 kts | 314° |
| 2026-05-07 01:37 | 1.78728 | -21.88727 | 35940 ft | 491 kts | 314° |
| 2026-05-07 01:38 | 1.83384 | -21.93649 | 35945 ft | 490 kts | 314° |
| 2026-05-07 01:38 | 1.88063 | -21.98595 | 35949 ft | 490 kts | 314° |
| 2026-05-07 01:39 | 1.92747 | -22.03548 | 35946 ft | 490 kts | 314° |
| 2026-05-07 01:39 | 1.97434 | -22.08503 | 35947 ft | 490 kts | 314° |
| 2026-05-07 01:40 | 2.02117 | -22.13456 | 35946 ft | 490 kts | 314° |
| 2026-05-07 01:40 | 2.06807 | -22.18415 | 35944 ft | 491 kts | 314° |
| 2026-05-07 01:41 | 2.11499 | -22.23378 | 35953 ft | 491 kts | 314° |
| 2026-05-07 01:41 | 2.16161 | -22.28310 | 35947 ft | 491 kts | 314° |
| 2026-05-07 01:42 | 2.20855 | -22.33275 | 35945 ft | 491 kts | 314° |
| 2026-05-07 01:42 | 2.25552 | -22.38244 | 35946 ft | 491 kts | 314° |
| 2026-05-07 01:43 | 2.30249 | -22.43214 | 35950 ft | 491 kts | 314° |
| 2026-05-07 01:43 | 2.34946 | -22.48184 | 35944 ft | 492 kts | 314° |
| 2026-05-07 01:44 | 2.39650 | -22.53162 | 35947 ft | 492 kts | 314° |
| 2026-05-07 01:44 | 2.44349 | -22.58136 | 35945 ft | 492 kts | 314° |
| 2026-05-07 01:45 | 2.49049 | -22.63110 | 35943 ft | 492 kts | 314° |
| 2026-05-07 01:45 | 2.53752 | -22.68089 | 35947 ft | 492 kts | 313° |
| 2026-05-07 01:46 | 2.58459 | -22.73073 | 35945 ft | 493 kts | 314° |
| 2026-05-07 01:46 | 2.63136 | -22.78025 | 35946 ft | 493 kts | 314° |
| 2026-05-07 01:47 | 2.67851 | -22.83018 | 35946 ft | 494 kts | 313° |
| 2026-05-07 01:47 | 2.72570 | -22.88017 | 35948 ft | 494 kts | 313° |
| 2026-05-07 01:48 | 2.77306 | -22.93033 | 35939 ft | 495 kts | 313° |
| 2026-05-07 01:48 | 2.82031 | -22.98039 | 35942 ft | 495 kts | 313° |
| 2026-05-07 01:49 | 2.86761 | -23.03051 | 35949 ft | 495 kts | 313° |
| 2026-05-07 01:49 | 2.91496 | -23.08068 | 35946 ft | 496 kts | 313° |
| 2026-05-07 01:50 | 2.96196 | -23.13050 | 35939 ft | 496 kts | 313° |
| 2026-05-07 01:50 | 3.00936 | -23.18073 | 35943 ft | 496 kts | 313° |
| 2026-05-07 01:51 | 3.05672 | -23.23094 | 35947 ft | 496 kts | 313° |
| 2026-05-07 01:51 | 3.10411 | -23.28118 | 35942 ft | 496 kts | 313° |
| 2026-05-07 01:52 | 3.15149 | -23.33142 | 35944 ft | 496 kts | 313° |
| 2026-05-07 01:52 | 3.19880 | -23.38159 | 35940 ft | 496 kts | 313° |
| 2026-05-07 01:53 | 3.24610 | -23.43176 | 35944 ft | 495 kts | 313° |
| 2026-05-07 01:53 | 3.29344 | -23.48198 | 35939 ft | 496 kts | 313° |
| 2026-05-07 01:54 | 3.34070 | -23.53212 | 35939 ft | 495 kts | 313° |
| 2026-05-07 01:54 | 3.38800 | -23.58232 | 35940 ft | 495 kts | 313° |
| 2026-05-07 01:55 | 3.43528 | -23.63250 | 35946 ft | 495 kts | 313° |
| 2026-05-07 01:55 | 3.48225 | -23.68236 | 35946 ft | 495 kts | 313° |
| 2026-05-07 01:56 | 3.52955 | -23.73256 | 35934 ft | 495 kts | 313° |
| 2026-05-07 01:56 | 3.57674 | -23.78268 | 35946 ft | 495 kts | 313° |
| 2026-05-07 01:57 | 3.62395 | -23.83281 | 35938 ft | 494 kts | 312° |
| 2026-05-07 01:57 | 3.67115 | -23.88296 | 35937 ft | 494 kts | 313° |
| 2026-05-07 01:58 | 3.71827 | -23.93301 | 35940 ft | 494 kts | 312° |
| 2026-05-07 01:58 | 3.76511 | -23.98278 | 35940 ft | 493 kts | 312° |
| 2026-05-07 01:59 | 3.81214 | -24.03275 | 35940 ft | 493 kts | 313° |
| 2026-05-07 01:59 | 3.85919 | -24.08276 | 35939 ft | 493 kts | 312° |
| 2026-05-07 02:00 | 3.90625 | -24.13279 | 35942 ft | 493 kts | 312° |
| 2026-05-07 02:00 | 3.95331 | -24.18283 | 35943 ft | 493 kts | 312° |
| 2026-05-07 02:01 | 4.00037 | -24.23287 | 35944 ft | 494 kts | 312° |
| 2026-05-07 02:01 | 4.04719 | -24.28267 | 35937 ft | 494 kts | 312° |
| 2026-05-07 02:02 | 4.09427 | -24.33276 | 35937 ft | 494 kts | 312° |
| 2026-05-07 02:02 | 4.14141 | -24.38292 | 35937 ft | 494 kts | 312° |
| 2026-05-07 02:03 | 4.18867 | -24.43321 | 35945 ft | 494 kts | 312° |
| 2026-05-07 02:03 | 4.23586 | -24.48344 | 35942 ft | 495 kts | 312° |
| 2026-05-07 02:04 | 4.28300 | -24.53362 | 35943 ft | 495 kts | 312° |
| 2026-05-07 02:04 | 4.33021 | -24.58390 | 35942 ft | 495 kts | 312° |
| 2026-05-07 02:05 | 4.37713 | -24.63386 | 35947 ft | 495 kts | 312° |
| 2026-05-07 02:05 | 4.42432 | -24.68414 | 35944 ft | 495 kts | 312° |
| 2026-05-07 02:06 | 4.47149 | -24.73439 | 35940 ft | 495 kts | 312° |
| 2026-05-07 02:06 | 4.51865 | -24.78465 | 35946 ft | 495 kts | 312° |
| 2026-05-07 02:07 | 4.56584 | -24.83495 | 35946 ft | 495 kts | 312° |
| 2026-05-07 02:07 | 4.63665 | -24.91045 | 35948 ft | 495 kts | 312° |
| 2026-05-07 02:08 | 4.68393 | -24.96087 | 35945 ft | 495 kts | 312° |
| 2026-05-07 02:08 | 4.73084 | -25.01090 | 35945 ft | 495 kts | 312° |
| 2026-05-07 02:09 | 4.77805 | -25.06127 | 35941 ft | 495 kts | 311° |
| 2026-05-07 02:09 | 4.81728 | -25.10313 | 35943 ft | 495 kts | 311° |
| 2026-05-07 02:10 | 4.86445 | -25.15347 | 35948 ft | 495 kts | 311° |
| 2026-05-07 02:10 | 4.91158 | -25.20379 | 35944 ft | 494 kts | 311° |
| 2026-05-07 02:11 | 4.95874 | -25.25414 | 35943 ft | 494 kts | 311° |
| 2026-05-07 02:11 | 5.00575 | -25.30435 | 35939 ft | 494 kts | 311° |
| 2026-05-07 02:12 | 5.05275 | -25.35456 | 35943 ft | 493 kts | 311° |
| 2026-05-07 02:12 | 5.09974 | -25.40478 | 35945 ft | 493 kts | 311° |
| 2026-05-07 02:13 | 5.14638 | -25.45463 | 35942 ft | 493 kts | 311° |
| 2026-05-07 02:13 | 5.19340 | -25.50488 | 35942 ft | 493 kts | 311° |
| 2026-05-07 02:14 | 5.24038 | -25.55513 | 35947 ft | 494 kts | 311° |
| 2026-05-07 02:14 | 5.28744 | -25.60546 | 35945 ft | 494 kts | 311° |
| 2026-05-07 02:15 | 5.33417 | -25.65545 | 35947 ft | 494 kts | 311° |
| 2026-05-07 02:15 | 5.38123 | -25.70581 | 35948 ft | 494 kts | 311° |
| 2026-05-07 02:16 | 5.42831 | -25.75621 | 35946 ft | 494 kts | 311° |
| 2026-05-07 02:16 | 5.47544 | -25.80668 | 35945 ft | 494 kts | 311° |
| 2026-05-07 02:17 | 5.52057 | -25.85853 | 35951 ft | 492 kts | 306° |
| 2026-05-07 02:17 | 5.56207 | -25.91325 | 35948 ft | 493 kts | 305° |
| 2026-05-07 02:18 | 5.60317 | -25.96779 | 35947 ft | 493 kts | 305° |
| 2026-05-07 02:18 | 5.64477 | -26.02255 | 35951 ft | 493 kts | 305° |
| 2026-05-07 02:19 | 5.68647 | -26.07720 | 35949 ft | 493 kts | 306° |
| 2026-05-07 02:19 | 5.72828 | -26.13197 | 35948 ft | 493 kts | 305° |
| 2026-05-07 02:20 | 5.76978 | -26.18636 | 35948 ft | 493 kts | 305° |
| 2026-05-07 02:20 | 5.81156 | -26.24115 | 35950 ft | 493 kts | 305° |
| 2026-05-07 02:21 | 5.85321 | -26.29578 | 35948 ft | 492 kts | 305° |
| 2026-05-07 02:21 | 5.89485 | -26.35041 | 35949 ft | 492 kts | 305° |
| 2026-05-07 02:22 | 5.93608 | -26.40454 | 35953 ft | 491 kts | 305° |
| 2026-05-07 02:22 | 5.97758 | -26.45902 | 35953 ft | 490 kts | 305° |
| 2026-05-07 02:23 | 6.01905 | -26.51349 | 35955 ft | 490 kts | 305° |
| 2026-05-07 02:23 | 6.06045 | -26.56787 | 35955 ft | 490 kts | 305° |
| 2026-05-07 02:24 | 6.10184 | -26.62226 | 35954 ft | 490 kts | 305° |
| 2026-05-07 02:24 | 6.14323 | -26.67666 | 35962 ft | 489 kts | 305° |
| 2026-05-07 02:25 | 6.18456 | -26.73100 | 35952 ft | 489 kts | 305° |
| 2026-05-07 02:25 | 6.22587 | -26.78534 | 35956 ft | 489 kts | 305° |
| 2026-05-07 02:26 | 6.26684 | -26.83923 | 35956 ft | 488 kts | 305° |
| 2026-05-07 02:26 | 6.30809 | -26.89351 | 35958 ft | 488 kts | 305° |
| 2026-05-07 02:27 | 6.34930 | -26.94777 | 35955 ft | 488 kts | 305° |
| 2026-05-07 02:27 | 6.39054 | -27.00209 | 35959 ft | 487 kts | 305° |
| 2026-05-07 02:28 | 6.43168 | -27.05628 | 35956 ft | 487 kts | 305° |
| 2026-05-07 02:28 | 6.47282 | -27.11049 | 35956 ft | 487 kts | 305° |
| 2026-05-07 02:29 | 6.51367 | -27.16437 | 35960 ft | 487 kts | 305° |
| 2026-05-07 02:29 | 6.55479 | -27.21864 | 35960 ft | 487 kts | 305° |
| 2026-05-07 02:30 | 6.59585 | -27.27283 | 35959 ft | 487 kts | 305° |
| 2026-05-07 02:30 | 6.63684 | -27.32696 | 35962 ft | 486 kts | 305° |
| 2026-05-07 02:31 | 6.67762 | -27.38083 | 35961 ft | 486 kts | 305° |
| 2026-05-07 02:31 | 6.71857 | -27.43495 | 35962 ft | 486 kts | 305° |
| 2026-05-07 02:32 | 6.75952 | -27.48906 | 35969 ft | 486 kts | 305° |
| 2026-05-07 02:32 | 6.80041 | -27.54314 | 35963 ft | 486 kts | 305° |
| 2026-05-07 02:33 | 6.84134 | -27.59728 | 35962 ft | 485 kts | 305° |
| 2026-05-07 02:33 | 6.88226 | -27.65139 | 35961 ft | 485 kts | 305° |
| 2026-05-07 02:34 | 6.92312 | -27.70537 | 35962 ft | 485 kts | 305° |
| 2026-05-07 02:34 | 6.96374 | -27.75905 | 35962 ft | 485 kts | 305° |
| 2026-05-07 02:35 | 7.00458 | -27.81307 | 35965 ft | 485 kts | 305° |
| 2026-05-07 02:35 | 7.04543 | -27.86712 | 35961 ft | 485 kts | 305° |
| 2026-05-07 02:36 | 7.08621 | -27.92109 | 35966 ft | 484 kts | 304° |
| 2026-05-07 02:36 | 7.12697 | -27.97506 | 35960 ft | 484 kts | 304° |
| 2026-05-07 02:37 | 7.16767 | -28.02897 | 35962 ft | 483 kts | 304° |
| 2026-05-07 02:37 | 7.20831 | -28.08282 | 35963 ft | 483 kts | 304° |
| 2026-05-07 02:38 | 7.24894 | -28.13667 | 35958 ft | 482 kts | 304° |
| 2026-05-07 02:38 | 7.28947 | -28.19042 | 35959 ft | 482 kts | 304° |
| 2026-05-07 02:39 | 7.32977 | -28.24386 | 35961 ft | 482 kts | 304° |
| 2026-05-07 02:39 | 7.37035 | -28.29766 | 35966 ft | 482 kts | 304° |
| 2026-05-07 02:40 | 7.41086 | -28.35142 | 35959 ft | 481 kts | 304° |
| 2026-05-07 02:40 | 7.45136 | -28.40519 | 35959 ft | 481 kts | 304° |
| 2026-05-07 02:41 | 7.49185 | -28.45898 | 35962 ft | 481 kts | 304° |
| 2026-05-07 02:41 | 7.53226 | -28.51267 | 35962 ft | 481 kts | 304° |
| 2026-05-07 02:42 | 7.57243 | -28.56606 | 35963 ft | 481 kts | 304° |
| 2026-05-07 02:42 | 7.61279 | -28.61973 | 35965 ft | 481 kts | 304° |
| 2026-05-07 02:43 | 7.65318 | -28.67345 | 35967 ft | 481 kts | 304° |
| 2026-05-07 02:43 | 7.69352 | -28.72712 | 35964 ft | 480 kts | 304° |
| 2026-05-07 02:44 | 7.73383 | -28.78078 | 35959 ft | 480 kts | 304° |
| 2026-05-07 02:44 | 7.77411 | -28.83441 | 35958 ft | 479 kts | 304° |
| 2026-05-07 02:45 | 7.81432 | -28.88797 | 35965 ft | 478 kts | 304° |
| 2026-05-07 02:45 | 7.85449 | -28.94150 | 35965 ft | 478 kts | 304° |
| 2026-05-07 02:46 | 7.89460 | -28.99497 | 35967 ft | 478 kts | 304° |
| 2026-05-07 02:46 | 7.93470 | -29.04844 | 35958 ft | 478 kts | 304° |
| 2026-05-07 02:47 | 7.97475 | -29.10186 | 35971 ft | 477 kts | 304° |
| 2026-05-07 02:47 | 8.01452 | -29.15493 | 35957 ft | 477 kts | 304° |
| 2026-05-07 02:48 | 8.05451 | -29.20831 | 35966 ft | 476 kts | 304° |
| 2026-05-07 02:48 | 8.09446 | -29.26167 | 35962 ft | 476 kts | 304° |
| 2026-05-07 02:49 | 8.13438 | -29.31500 | 35962 ft | 476 kts | 304° |
| 2026-05-07 02:49 | 8.17428 | -29.36832 | 35965 ft | 475 kts | 304° |
| 2026-05-07 02:50 | 8.21415 | -29.42162 | 35964 ft | 476 kts | 304° |
| 2026-05-07 02:50 | 8.25376 | -29.47460 | 35957 ft | 476 kts | 304° |
| 2026-05-07 02:51 | 8.29365 | -29.52797 | 35966 ft | 475 kts | 304° |
| 2026-05-07 02:51 | 8.33345 | -29.58125 | 35962 ft | 475 kts | 304° |
| 2026-05-07 02:52 | 8.37326 | -29.63456 | 35961 ft | 475 kts | 304° |
| 2026-05-07 02:52 | 8.41275 | -29.68747 | 35965 ft | 475 kts | 304° |
| 2026-05-07 02:53 | 8.45248 | -29.74072 | 35966 ft | 474 kts | 304° |
| 2026-05-07 02:53 | 8.49221 | -29.79398 | 35968 ft | 474 kts | 304° |
| 2026-05-07 02:54 | 8.53194 | -29.84724 | 35964 ft | 474 kts | 304° |
| 2026-05-07 02:54 | 8.57163 | -29.90047 | 35968 ft | 474 kts | 304° |
| 2026-05-07 02:55 | 8.61127 | -29.95368 | 35962 ft | 473 kts | 304° |
| 2026-05-07 02:55 | 8.65086 | -30.00686 | 35964 ft | 473 kts | 304° |
| 2026-05-07 02:56 | 8.69037 | -30.05994 | 35969 ft | 472 kts | 304° |
| 2026-05-07 02:56 | 8.72961 | -30.11268 | 35970 ft | 472 kts | 304° |
| 2026-05-07 02:57 | 8.76901 | -30.16565 | 35968 ft | 471 kts | 304° |
| 2026-05-07 02:57 | 8.80841 | -30.21866 | 35970 ft | 471 kts | 304° |
| 2026-05-07 02:58 | 8.84774 | -30.27158 | 35975 ft | 470 kts | 304° |
| 2026-05-07 02:58 | 8.88705 | -30.32451 | 35969 ft | 470 kts | 303° |
| 2026-05-07 02:59 | 8.92625 | -30.37729 | 35965 ft | 469 kts | 303° |
| 2026-05-07 02:59 | 8.96541 | -30.43005 | 35963 ft | 469 kts | 303° |
| 2026-05-07 03:00 | 8.99791 | -30.47386 | 35968 ft | 468 kts | 303° |
| 2026-05-07 03:00 | 9.03699 | -30.52656 | 35974 ft | 468 kts | 303° |
| 2026-05-07 03:01 | 9.07615 | -30.57939 | 35973 ft | 469 kts | 303° |
| 2026-05-07 03:01 | 9.11528 | -30.63218 | 35973 ft | 469 kts | 303° |
| 2026-05-07 03:02 | 9.15450 | -30.68513 | 35977 ft | 470 kts | 303° |
| 2026-05-07 03:02 | 9.19369 | -30.73806 | 35972 ft | 470 kts | 303° |
| 2026-05-07 03:03 | 9.23269 | -30.79075 | 35972 ft | 470 kts | 303° |
| 2026-05-07 03:03 | 9.27186 | -30.84369 | 35973 ft | 469 kts | 303° |
| 2026-05-07 03:04 | 9.31100 | -30.89663 | 35976 ft | 469 kts | 303° |
| 2026-05-07 03:04 | 9.35020 | -30.94965 | 35975 ft | 469 kts | 303° |
| 2026-05-07 03:05 | 9.38930 | -31.00258 | 35978 ft | 469 kts | 303° |
| 2026-05-07 03:05 | 9.42807 | -31.05507 | 35978 ft | 468 kts | 303° |
| 2026-05-07 03:06 | 9.46708 | -31.10791 | 35976 ft | 468 kts | 303° |
| 2026-05-07 03:06 | 9.50609 | -31.16078 | 35975 ft | 468 kts | 303° |
| 2026-05-07 03:07 | 9.54502 | -31.21357 | 35976 ft | 468 kts | 303° |
| 2026-05-07 03:07 | 9.58400 | -31.26645 | 35978 ft | 467 kts | 303° |
| 2026-05-07 03:08 | 9.62290 | -31.31925 | 35979 ft | 468 kts | 303° |
| 2026-05-07 03:08 | 9.66182 | -31.37208 | 35978 ft | 468 kts | 303° |
| 2026-05-07 03:09 | 9.70078 | -31.42495 | 35989 ft | 467 kts | 303° |
| 2026-05-07 03:09 | 9.73943 | -31.47742 | 35979 ft | 467 kts | 303° |
| 2026-05-07 03:10 | 9.77824 | -31.53016 | 35979 ft | 466 kts | 303° |
| 2026-05-07 03:10 | 9.81702 | -31.58288 | 35979 ft | 466 kts | 303° |
| 2026-05-07 03:11 | 9.85569 | -31.63548 | 35984 ft | 465 kts | 303° |
| 2026-05-07 03:11 | 9.89440 | -31.68816 | 35984 ft | 465 kts | 303° |
| 2026-05-07 03:12 | 9.93304 | -31.74077 | 35983 ft | 465 kts | 303° |
| 2026-05-07 03:12 | 9.97166 | -31.79337 | 35992 ft | 464 kts | 303° |
| 2026-05-07 03:13 | 10.01022 | -31.84591 | 35989 ft | 464 kts | 303° |
| 2026-05-07 03:13 | 10.04851 | -31.89812 | 35987 ft | 464 kts | 303° |
| 2026-05-07 03:14 | 10.08703 | -31.95065 | 35984 ft | 463 kts | 303° |
| 2026-05-07 03:15 | 10.14471 | -32.02936 | 35991 ft | 463 kts | 303° |
| 2026-05-07 03:15 | 10.18311 | -32.08179 | 35989 ft | 463 kts | 303° |
| 2026-05-07 03:16 | 10.22151 | -32.13425 | 35991 ft | 463 kts | 303° |
| 2026-05-07 03:16 | 10.25987 | -32.18667 | 36002 ft | 462 kts | 303° |
| 2026-05-07 03:17 | 10.29824 | -32.23913 | 35993 ft | 462 kts | 303° |
| 2026-05-07 03:17 | 10.33624 | -32.29112 | 35992 ft | 461 kts | 303° |
| 2026-05-07 03:18 | 10.37449 | -32.34346 | 35991 ft | 461 kts | 303° |
| 2026-05-07 03:18 | 10.41266 | -32.39573 | 35993 ft | 460 kts | 303° |
| 2026-05-07 03:19 | 10.45086 | -32.44805 | 36000 ft | 460 kts | 303° |
| 2026-05-07 03:19 | 10.48902 | -32.50036 | 35996 ft | 461 kts | 303° |
| 2026-05-07 03:20 | 10.52722 | -32.55274 | 36002 ft | 461 kts | 303° |
| 2026-05-07 03:20 | 10.56540 | -32.60510 | 35998 ft | 461 kts | 303° |
| 2026-05-07 03:21 | 10.60332 | -32.65715 | 35999 ft | 461 kts | 303° |
| 2026-05-07 03:21 | 10.64148 | -32.70954 | 35997 ft | 460 kts | 303° |
| 2026-05-07 03:22 | 10.67960 | -32.76191 | 35997 ft | 460 kts | 303° |
| 2026-05-07 03:22 | 10.71770 | -32.81428 | 35997 ft | 460 kts | 303° |
| 2026-05-07 03:23 | 10.75576 | -32.86661 | 35995 ft | 460 kts | 303° |
| 2026-05-07 03:23 | 10.79380 | -32.91894 | 36005 ft | 460 kts | 303° |
| 2026-05-07 03:24 | 10.83180 | -32.97124 | 36001 ft | 459 kts | 303° |
| 2026-05-07 03:24 | 10.86950 | -33.02316 | 35982 ft | 458 kts | 303° |
| 2026-05-07 03:25 | 10.90736 | -33.07532 | 36005 ft | 458 kts | 303° |
| 2026-05-07 03:25 | 10.94515 | -33.12740 | 36006 ft | 457 kts | 303° |
| 2026-05-07 03:26 | 10.98288 | -33.17945 | 35999 ft | 457 kts | 303° |
| 2026-05-07 03:26 | 11.02063 | -33.23153 | 36003 ft | 457 kts | 303° |
| 2026-05-07 03:27 | 11.05814 | -33.28331 | 36010 ft | 457 kts | 303° |
| 2026-05-07 03:27 | 11.09590 | -33.33546 | 36007 ft | 457 kts | 303° |
| 2026-05-07 03:28 | 11.13368 | -33.38766 | 35992 ft | 457 kts | 303° |
| 2026-05-07 03:28 | 11.17137 | -33.43977 | 35989 ft | 457 kts | 303° |
| 2026-05-07 03:29 | 11.20909 | -33.49194 | 36007 ft | 457 kts | 303° |
| 2026-05-07 03:29 | 11.24660 | -33.54385 | 36008 ft | 457 kts | 303° |
| 2026-05-07 03:30 | 11.28430 | -33.59604 | 36007 ft | 457 kts | 303° |
| 2026-05-07 03:30 | 11.32196 | -33.64821 | 36000 ft | 457 kts | 303° |
| 2026-05-07 03:31 | 11.35955 | -33.70031 | 35999 ft | 456 kts | 303° |
| 2026-05-07 03:31 | 11.39715 | -33.75245 | 36017 ft | 456 kts | 303° |
| 2026-05-07 03:32 | 11.43474 | -33.80460 | 36000 ft | 456 kts | 303° |
| 2026-05-07 03:32 | 11.47207 | -33.85642 | 35998 ft | 456 kts | 303° |
| 2026-05-07 03:33 | 11.50955 | -33.90848 | 36022 ft | 455 kts | 303° |
| 2026-05-07 03:33 | 11.54703 | -33.96056 | 36007 ft | 455 kts | 303° |
| 2026-05-07 03:34 | 11.58452 | -34.01267 | 36009 ft | 455 kts | 302° |
| 2026-05-07 03:34 | 11.62192 | -34.06470 | 36009 ft | 454 kts | 302° |
| 2026-05-07 03:35 | 11.65928 | -34.11669 | 36003 ft | 454 kts | 302° |
| 2026-05-07 03:35 | 11.69657 | -34.16861 | 36005 ft | 453 kts | 302° |
| 2026-05-07 03:36 | 11.73379 | -34.22048 | 36006 ft | 453 kts | 302° |
| 2026-05-07 03:36 | 11.77096 | -34.27229 | 36008 ft | 452 kts | 302° |
| 2026-05-07 03:37 | 11.80811 | -34.32412 | 36010 ft | 452 kts | 302° |
| 2026-05-07 03:37 | 11.84521 | -34.37587 | 36014 ft | 451 kts | 302° |
| 2026-05-07 03:38 | 11.88225 | -34.42757 | 36008 ft | 450 kts | 302° |
| 2026-05-07 03:38 | 11.91895 | -34.47880 | 36006 ft | 449 kts | 302° |
| 2026-05-07 03:39 | 11.95588 | -34.53040 | 36009 ft | 449 kts | 302° |
| 2026-05-07 03:39 | 11.99272 | -34.58191 | 36009 ft | 449 kts | 302° |
| 2026-05-07 03:40 | 12.02959 | -34.63349 | 36011 ft | 449 kts | 302° |
| 2026-05-07 03:40 | 12.06645 | -34.68510 | 36008 ft | 449 kts | 302° |
| 2026-05-07 03:41 | 12.10329 | -34.73669 | 36007 ft | 450 kts | 302° |
| 2026-05-07 03:41 | 12.14016 | -34.78835 | 36015 ft | 450 kts | 302° |
| 2026-05-07 03:42 | 12.17707 | -34.84010 | 36013 ft | 451 kts | 302° |
| 2026-05-07 03:42 | 12.21381 | -34.89163 | 36015 ft | 451 kts | 302° |
| 2026-05-07 03:43 | 12.25081 | -34.94356 | 36016 ft | 452 kts | 302° |
| 2026-05-07 03:43 | 12.28779 | -34.99550 | 36006 ft | 452 kts | 302° |
| 2026-05-07 03:44 | 12.32481 | -35.04750 | 36021 ft | 452 kts | 302° |
| 2026-05-07 03:44 | 12.36183 | -35.09955 | 36014 ft | 452 kts | 302° |
| 2026-05-07 03:45 | 12.39885 | -35.15162 | 36014 ft | 451 kts | 302° |
| 2026-05-07 03:45 | 12.43574 | -35.20354 | 36016 ft | 451 kts | 302° |
| 2026-05-07 03:46 | 12.47260 | -35.25544 | 36017 ft | 450 kts | 302° |
| 2026-05-07 03:46 | 12.50316 | -35.29850 | 36019 ft | 450 kts | 302° |
| 2026-05-07 03:47 | 12.52155 | -35.32442 | 36020 ft | 450 kts | 302° |